Time,TemperatureF,DewpointF,PressureIn,WindDirection,WindDirectionDegrees,WindSpeedMPH,WindSpeedGustMPH,Humidity,HourlyPrecipIn,Conditions,Clouds,dailyrainin,SoftwareType,DateUTC
2013-01-01 00:00:00,28.8,23.3,30.05,NW,316,4.2,4.2,80,0.00,,,0.00,VWS V14.01,2013-01-01 05:00:00,
2013-01-01 00:02:00,29.0,23.8,30.05,NNW,332,4.0,4.0,81,0.00,,,0.00,VWS V14.01,2013-01-01 05:02:00,
2013-01-01 00:03:00,28.8,23.6,30.05,NW,311,4.0,4.0,81,0.00,,,0.00,VWS V14.01,2013-01-01 05:03:00,
2013-01-01 00:05:00,28.7,23.8,30.09,NW,316,3.2,5.1,81,0.00,,,0.00,VWS V14.01,2013-01-01 05:05:00,
2013-01-01 00:07:00,28.8,23.8,30.05,NW,321,3.4,5.1,81,0.00,,,0.00,VWS V14.01,2013-01-01 05:07:00,
2013-01-01 00:09:00,28.8,23.6,30.09,NW,323,4.2,5.1,81,0.00,,,0.00,VWS V14.01,2013-01-01 05:09:00,
2013-01-01 00:11:00,28.8,23.1,30.05,NW,320,3.9,5.1,79,0.00,,,0.00,VWS V14.01,2013-01-01 05:11:00,
2013-01-01 00:12:00,28.8,24.0,30.05,NW,319,4.0,5.1,82,0.00,,,0.00,VWS V14.01,2013-01-01 05:12:00,
2013-01-01 00:14:00,28.9,24.0,30.05,NW,316,5.9,6.6,81,0.00,,,0.00,VWS V14.01,2013-01-01 05:14:00,
2013-01-01 00:16:00,28.9,23.7,30.05,NNW,342,4.2,6.8,81,0.00,,,0.00,VWS V14.01,2013-01-01 05:16:00,
2013-01-01 00:17:00,28.8,23.7,30.05,NW,323,5.1,6.8,81,0.00,,,0.00,VWS V14.01,2013-01-01 05:17:00,
2013-01-01 00:18:00,28.8,23.6,30.05,NE,39,3.4,6.8,81,0.00,,,0.00,VWS V14.01,2013-01-01 05:18:00,
2013-01-01 00:20:00,28.8,23.4,30.04,North,352,4.7,6.8,80,0.00,,,0.00,VWS V14.01,2013-01-01 05:20:00,
2013-01-01 00:22:00,28.7,23.1,30.05,North,10,4.7,6.8,79,0.00,,,0.00,VWS V14.01,2013-01-01 05:22:00,
2013-01-01 00:24:00,28.7,22.8,30.05,North,352,4.5,6.8,78,0.00,,,0.00,VWS V14.01,2013-01-01 05:24:00,
2013-01-01 00:25:00,28.6,22.5,30.05,NNW,342,4.7,6.8,78,0.00,,,0.00,VWS V14.01,2013-01-01 05:25:00,
2013-01-01 00:28:00,28.5,22.4,30.04,West,278,1.5,6.8,77,0.00,,,0.00,VWS V14.01,2013-01-01 05:28:00,
2013-01-01 00:30:00,28.5,22.2,30.05,NW,318,2.8,7.1,77,0.00,,,0.00,VWS V14.01,2013-01-01 05:30:00,
2013-01-01 00:31:00,28.4,22.1,30.05,NW,306,2.8,7.1,77,0.00,,,0.00,VWS V14.01,2013-01-01 05:31:00,
2013-01-01 00:32:00,28.5,22.1,30.05,North,350,6.6,7.1,77,0.00,,,0.00,VWS V14.01,2013-01-01 05:32:00,
2013-01-01 00:35:00,28.3,21.6,30.05,NNW,333,3.4,7.1,76,0.00,,,0.00,VWS V14.01,2013-01-01 05:35:00,
2013-01-01 00:36:00,28.4,21.1,30.06,North,1,5.2,7.1,74,0.00,,,0.00,VWS V14.01,2013-01-01 05:36:00,
2013-01-01 00:37:00,28.4,20.7,30.05,NNW,345,6.9,7.1,72,0.00,,,0.00,VWS V14.01,2013-01-01 05:37:00,
2013-01-01 00:42:00,28.3,20.2,30.05,NNE,26,4.9,7.1,71,0.00,,,0.00,VWS V14.01,2013-01-01 05:42:00,
2013-01-01 00:43:00,28.3,20.2,30.05,NNW,342,3.7,7.1,71,0.00,,,0.00,VWS V14.01,2013-01-01 05:43:00,
2013-01-01 00:45:00,28.2,20.2,30.05,NW,323,3.4,7.1,71,0.00,,,0.00,VWS V14.01,2013-01-01 05:45:00,
2013-01-01 00:47:00,28.1,20.4,30.05,NNW,343,4.0,7.1,72,0.00,,,0.00,VWS V14.01,2013-01-01 05:47:00,
2013-01-01 00:48:00,28.1,20.4,30.05,NNW,329,2.7,7.1,72,0.00,,,0.00,VWS V14.01,2013-01-01 05:48:00,
2013-01-01 00:50:00,28.1,20.4,30.05,NNW,330,4.5,7.1,72,0.00,,,0.00,VWS V14.01,2013-01-01 05:50:00,
2013-01-01 00:53:00,28.1,20.5,30.05,WNW,294,5.9,7.8,72,0.00,,,0.00,VWS V14.01,2013-01-01 05:53:00,
2013-01-01 00:54:00,28.2,20.5,30.05,NW,319,5.7,7.8,73,0.00,,,0.00,VWS V14.01,2013-01-01 05:54:00,
2013-01-01 00:55:00,28.1,20.5,30.05,NNE,19,3.9,7.8,73,0.00,,,0.00,VWS V14.01,2013-01-01 05:55:00,
2013-01-01 00:56:00,28.0,20.5,30.05,North,350,2.8,7.8,73,0.00,,,0.00,VWS V14.01,2013-01-01 05:56:00,
2013-01-01 00:58:00,28.0,20.6,30.05,NNE,14,4.5,7.8,73,0.00,,,0.00,VWS V14.01,2013-01-01 05:58:00,
2013-01-01 00:59:00,28.0,20.5,30.05,North,7,2.5,7.8,73,0.00,,,0.00,VWS V14.01,2013-01-01 05:59:00,
2013-01-01 01:02:00,27.8,20.5,30.05,NNW,348,2.7,3.4,74,0.00,,,0.00,VWS V14.01,2013-01-01 06:02:00,
2013-01-01 01:03:00,27.8,20.5,30.05,NNW,348,2.7,3.4,74,0.00,,,0.00,VWS V14.01,2013-01-01 06:03:00,
2013-01-01 01:04:00,27.7,20.8,30.05,North,8,1.5,1.5,75,0.00,,,0.00,VWS V14.01,2013-01-01 06:04:00,
2013-01-01 01:05:00,27.8,20.9,30.06,North,351,3.2,3.2,75,0.00,,,0.00,VWS V14.01,2013-01-01 06:05:00,
2013-01-01 01:08:00,27.9,20.6,30.04,North,349,3.2,4.0,74,0.00,,,0.00,VWS V14.01,2013-01-01 06:08:00,
2013-01-01 01:09:00,27.8,20.5,30.04,NNE,21,2.8,2.8,74,0.00,,,0.00,VWS V14.01,2013-01-01 06:09:00,
2013-01-01 01:11:00,27.8,20.4,30.05,North,0,2.5,3.7,73,0.00,,,0.00,VWS V14.01,2013-01-01 06:11:00,
2013-01-01 01:13:00,27.8,20.2,30.05,North,351,4.5,4.5,73,0.00,,,0.00,VWS V14.01,2013-01-01 06:13:00,
2013-01-01 01:15:00,27.9,20.3,30.05,NW,314,4.2,4.2,73,0.00,,,0.00,VWS V14.01,2013-01-01 06:15:00,
2013-01-01 01:16:00,27.8,20.1,30.05,NNW,328,3.9,3.9,73,0.00,,,0.00,VWS V14.01,2013-01-01 06:16:00,
2013-01-01 01:19:00,27.7,20.1,30.05,NW,322,6.3,6.3,73,0.00,,,0.00,VWS V14.01,2013-01-01 06:19:00,
2013-01-01 01:20:00,27.7,19.8,30.05,North,2,5.1,7.8,72,0.00,,,0.00,VWS V14.01,2013-01-01 06:20:00,
2013-01-01 01:22:00,27.7,19.5,30.04,NNE,13,5.6,6.1,71,0.00,,,0.00,VWS V14.01,2013-01-01 06:22:00,
2013-01-01 01:24:00,27.7,18.5,30.04,NE,39,6.4,6.4,68,0.00,,,0.00,VWS V14.01,2013-01-01 06:24:00,
2013-01-01 01:26:00,27.6,19.4,30.05,NW,325,3.7,5.2,71,0.00,,,0.00,VWS V14.01,2013-01-01 06:26:00,
2013-01-01 01:29:00,27.6,19.4,30.05,NW,311,8.1,8.1,71,0.00,,,0.00,VWS V14.01,2013-01-01 06:29:00,
2013-01-01 01:30:00,27.5,19.4,30.05,North,4,2.7,2.7,71,0.00,,,0.00,VWS V14.01,2013-01-01 06:30:00,
2013-01-01 01:31:00,27.5,19.5,30.05,NNW,334,2.2,3.5,71,0.00,,,0.00,VWS V14.01,2013-01-01 06:31:00,
2013-01-01 01:33:00,27.5,19.3,30.04,North,351,3.5,6.1,71,0.00,,,0.00,VWS V14.01,2013-01-01 06:33:00,
2013-01-01 01:35:00,27.5,19.2,30.04,North,2,4.5,4.5,71,0.00,,,0.00,VWS V14.01,2013-01-01 06:35:00,
2013-01-01 01:36:00,27.5,19.2,30.04,North,2,4.5,4.5,71,0.00,,,0.00,VWS V14.01,2013-01-01 06:36:00,
2013-01-01 01:37:00,27.5,19.1,30.04,NNW,331,4.7,4.7,70,0.00,,,0.00,VWS V14.01,2013-01-01 06:37:00,
2013-01-01 01:40:00,27.5,19.1,30.04,NNW,342,5.2,5.2,70,0.00,,,0.00,VWS V14.01,2013-01-01 06:40:00,
2013-01-01 01:41:00,27.4,18.9,30.04,NNW,327,5.1,5.7,70,0.00,,,0.00,VWS V14.01,2013-01-01 06:41:00,
2013-01-01 01:42:00,27.5,18.9,30.04,NW,309,6.4,6.4,70,0.00,,,0.00,VWS V14.01,2013-01-01 06:42:00,
2013-01-01 01:43:00,27.4,18.9,30.04,NW,322,4.2,4.4,70,0.00,,,0.00,VWS V14.01,2013-01-01 06:43:00,
2013-01-01 01:46:00,27.4,19.0,30.10,NNW,347,4.4,5.6,70,0.00,,,0.00,VWS V14.01,2013-01-01 06:46:00,
2013-01-01 01:47:00,27.3,18.9,30.05,NNW,340,4.0,6.3,70,0.00,,,0.00,VWS V14.01,2013-01-01 06:47:00,
2013-01-01 01:48:00,27.3,19.0,30.04,NNW,330,2.3,4.4,71,0.00,,,0.00,VWS V14.01,2013-01-01 06:48:00,
2013-01-01 01:52:00,27.2,19.1,30.04,NNW,327,6.6,6.6,71,0.00,,,0.00,VWS V14.01,2013-01-01 06:52:00,
2013-01-01 01:53:00,27.2,19.1,30.04,North,7,4.0,4.0,71,0.00,,,0.00,VWS V14.01,2013-01-01 06:53:00,
2013-01-01 01:54:00,27.2,17.4,30.09,NNW,332,3.7,4.0,66,0.00,,,0.00,VWS V14.01,2013-01-01 06:54:00,
2013-01-01 01:57:00,27.1,17.4,30.04,NNW,328,6.1,6.1,66,0.00,,,0.00,VWS V14.01,2013-01-01 06:57:00,
2013-01-01 01:58:00,27.1,18.9,30.04,NNW,332,3.5,6.1,71,0.00,,,0.00,VWS V14.01,2013-01-01 06:58:00,
2013-01-01 01:59:00,27.2,18.9,30.04,NNW,342,6.4,6.4,70,0.00,,,0.00,VWS V14.01,2013-01-01 06:59:00,
2013-01-01 02:03:00,27.3,18.7,30.04,NNW,330,5.2,7.6,70,0.00,,,0.00,VWS V14.01,2013-01-01 07:03:00,
2013-01-01 02:05:00,27.2,18.6,30.05,North,349,3.9,5.1,69,0.00,,,0.00,VWS V14.01,2013-01-01 07:05:00,
2013-01-01 02:08:00,27.1,18.7,30.05,NNW,348,3.2,4.7,70,0.00,,,0.00,VWS V14.01,2013-01-01 07:08:00,
2013-01-01 02:09:00,27.2,18.8,30.05,NNW,330,5.6,5.6,70,0.00,,,0.00,VWS V14.01,2013-01-01 07:09:00,
2013-01-01 02:11:00,27.0,16.5,30.05,NW,315,4.0,4.0,64,0.00,,,0.00,VWS V14.01,2013-01-01 07:11:00,
2013-01-01 02:12:00,27.1,18.7,30.05,NW,319,4.2,4.9,70,0.00,,,0.00,VWS V14.01,2013-01-01 07:12:00,
2013-01-01 02:14:00,27.0,18.8,30.05,North,0,3.4,4.4,71,0.00,,,0.00,VWS V14.01,2013-01-01 07:14:00,
2013-01-01 02:16:00,27.1,18.8,30.05,WNW,303,5.4,5.7,70,0.00,,,0.00,VWS V14.01,2013-01-01 07:16:00,
2013-01-01 02:19:00,27.0,18.8,30.07,North,4,3.5,5.6,71,0.00,,,0.00,VWS V14.01,2013-01-01 07:19:00,
2013-01-01 02:20:00,27.0,18.9,30.06,North,350,3.7,4.2,71,0.00,,,0.00,VWS V14.01,2013-01-01 07:20:00,
2013-01-01 02:21:00,27.0,19.0,30.06,NNW,327,3.2,3.7,71,0.00,,,0.00,VWS V14.01,2013-01-01 07:21:00,
2013-01-01 02:22:00,26.9,18.8,30.05,NW,318,4.2,5.2,71,0.00,,,0.00,VWS V14.01,2013-01-01 07:22:00,
2013-01-01 02:25:00,26.9,19.0,30.05,North,350,1.6,1.8,72,0.00,,,0.00,VWS V14.01,2013-01-01 07:25:00,
2013-01-01 02:27:00,27.0,19.1,30.05,North,7,1.0,2.7,72,0.00,,,0.00,VWS V14.01,2013-01-01 07:27:00,
2013-01-01 02:29:00,26.8,19.0,30.05,NNW,336,1.6,3.4,72,0.00,,,0.00,VWS V14.01,2013-01-01 07:29:00,
2013-01-01 02:31:00,26.9,19.2,30.06,NNW,331,3.9,3.9,72,0.00,,,0.00,VWS V14.01,2013-01-01 07:31:00,
2013-01-01 02:32:00,26.9,19.2,30.06,North,351,2.3,3.9,72,0.00,,,0.00,VWS V14.01,2013-01-01 07:32:00,
2013-01-01 02:37:00,27.0,19.3,30.06,NNE,30,5.6,5.6,72,0.00,,,0.00,VWS V14.01,2013-01-01 07:37:00,
2013-01-01 02:38:00,26.9,19.2,30.05,NNE,12,3.7,4.5,72,0.00,,,0.00,VWS V14.01,2013-01-01 07:38:00,
2013-01-01 02:39:00,27.0,19.2,30.06,West,276,6.8,6.8,72,0.00,,,0.00,VWS V14.01,2013-01-01 07:39:00,
2013-01-01 02:42:00,26.8,18.8,30.06,NW,323,6.8,6.8,71,0.00,,,0.00,VWS V14.01,2013-01-01 07:42:00,
2013-01-01 02:43:00,26.8,18.8,30.06,NW,323,6.8,6.8,71,0.00,,,0.00,VWS V14.01,2013-01-01 07:43:00,
2013-01-01 02:44:00,26.9,19.1,30.05,NNW,334,5.1,5.1,72,0.00,,,0.00,VWS V14.01,2013-01-01 07:44:00,
2013-01-01 02:47:00,26.9,19.0,30.06,NW,318,2.3,3.5,72,0.00,,,0.00,VWS V14.01,2013-01-01 07:47:00,
2013-01-01 02:48:00,26.8,19.0,30.06,NNW,344,2.3,2.3,72,0.00,,,0.00,VWS V14.01,2013-01-01 07:48:00,
2013-01-01 02:49:00,26.8,19.0,30.06,NW,317,2.7,4.0,72,0.00,,,0.00,VWS V14.01,2013-01-01 07:49:00,
2013-01-01 02:50:00,26.8,19.0,30.05,NNW,341,2.8,4.0,72,0.00,,,0.00,VWS V14.01,2013-01-01 07:50:00,
2013-01-01 02:53:00,26.8,18.8,30.05,North,352,2.7,2.7,71,0.00,,,0.00,VWS V14.01,2013-01-01 07:53:00,
2013-01-01 02:55:00,26.8,18.8,30.05,NNW,347,3.7,3.7,72,0.00,,,0.00,VWS V14.01,2013-01-01 07:55:00,
2013-01-01 02:56:00,26.8,18.7,30.05,North,360,4.4,4.4,71,0.00,,,0.00,VWS V14.01,2013-01-01 07:56:00,
2013-01-01 02:58:00,26.8,18.6,30.10,NNW,345,2.7,4.5,71,0.00,,,0.00,VWS V14.01,2013-01-01 07:58:00,
2013-01-01 03:00:00,26.7,18.5,30.06,NE,39,3.7,5.1,71,0.00,,,0.00,VWS V14.01,2013-01-01 08:00:00,
2013-01-01 03:01:00,26.6,16.7,30.06,NNW,332,4.0,4.0,66,0.00,,,0.00,VWS V14.01,2013-01-01 08:01:00,
2013-01-01 03:02:00,26.7,18.5,30.06,NNW,335,5.4,5.4,71,0.00,,,0.00,VWS V14.01,2013-01-01 08:02:00,
2013-01-01 03:04:00,26.7,18.5,30.05,NNW,338,3.9,4.0,71,0.00,,,0.00,VWS V14.01,2013-01-01 08:04:00,
2013-01-01 03:06:00,26.7,18.0,30.05,North,351,4.4,5.1,69,0.00,,,0.00,VWS V14.01,2013-01-01 08:06:00,
2013-01-01 03:08:00,26.5,17.9,30.05,NW,322,3.4,3.4,70,0.00,,,0.00,VWS V14.01,2013-01-01 08:08:00,
2013-01-01 03:09:00,26.7,17.9,30.06,NNW,328,6.3,6.6,69,0.00,,,0.00,VWS V14.01,2013-01-01 08:09:00,
2013-01-01 03:11:00,26.6,17.4,30.06,NW,323,5.7,6.1,68,0.00,,,0.00,VWS V14.01,2013-01-01 08:11:00,
2013-01-01 03:13:00,26.5,17.3,30.06,NNW,335,4.4,5.4,68,0.00,,,0.00,VWS V14.01,2013-01-01 08:13:00,
2013-01-01 03:14:00,26.5,17.3,30.06,NNE,15,2.2,2.2,68,0.00,,,0.00,VWS V14.01,2013-01-01 08:14:00,
2013-01-01 03:17:00,26.6,16.9,30.06,North,1,5.2,5.4,66,0.00,,,0.00,VWS V14.01,2013-01-01 08:17:00,
2013-01-01 03:19:00,26.5,16.7,30.05,NW,304,3.2,4.0,66,0.00,,,0.00,VWS V14.01,2013-01-01 08:19:00,
2013-01-01 03:20:00,26.5,16.7,30.05,NNW,340,4.9,4.9,66,0.00,,,0.00,VWS V14.01,2013-01-01 08:20:00,
2013-01-01 03:22:00,26.5,16.7,30.06,NNE,28,3.9,6.1,66,0.00,,,0.00,VWS V14.01,2013-01-01 08:22:00,
2013-01-01 03:24:00,26.4,16.7,30.05,NE,42,3.0,3.9,66,0.00,,,0.00,VWS V14.01,2013-01-01 08:24:00,
2013-01-01 03:25:00,26.4,16.7,30.05,NE,42,3.0,3.9,66,0.00,,,0.00,VWS V14.01,2013-01-01 08:25:00,
2013-01-01 03:28:00,26.4,16.6,30.05,NNW,336,3.2,4.2,66,0.00,,,0.00,VWS V14.01,2013-01-01 08:28:00,
2013-01-01 03:30:00,26.5,16.5,30.05,NNW,338,4.9,4.9,66,0.00,,,0.00,VWS V14.01,2013-01-01 08:30:00,
2013-01-01 03:31:00,26.5,16.5,30.06,NNW,339,4.5,4.5,65,0.00,,,0.00,VWS V14.01,2013-01-01 08:31:00,
2013-01-01 03:34:00,26.5,16.1,30.06,North,10,3.0,6.9,64,0.00,,,0.00,VWS V14.01,2013-01-01 08:34:00,
2013-01-01 03:36:00,26.4,16.0,30.07,NW,323,4.2,5.7,64,0.00,,,0.00,VWS V14.01,2013-01-01 08:36:00,
2013-01-01 03:38:00,26.4,16.2,30.07,NW,316,4.5,4.5,65,0.00,,,0.00,VWS V14.01,2013-01-01 08:38:00,
2013-01-01 03:40:00,26.4,16.2,30.06,NW,309,3.9,3.9,65,0.00,,,0.00,VWS V14.01,2013-01-01 08:40:00,
2013-01-01 03:41:00,26.4,16.1,30.06,NNW,333,5.9,5.9,64,0.00,,,0.00,VWS V14.01,2013-01-01 08:41:00,
2013-01-01 03:44:00,26.3,16.2,30.07,NNW,337,2.7,4.9,65,0.00,,,0.00,VWS V14.01,2013-01-01 08:44:00,
2013-01-01 03:45:00,26.4,16.2,30.07,NNW,331,2.8,2.8,65,0.00,,,0.00,VWS V14.01,2013-01-01 08:45:00,
2013-01-01 03:47:00,26.4,16.1,30.07,North,0,2.8,5.6,65,0.00,,,0.00,VWS V14.01,2013-01-01 08:47:00,
2013-01-01 03:48:00,26.3,16.1,30.07,North,0,3.5,3.9,65,0.00,,,0.00,VWS V14.01,2013-01-01 08:48:00,
2013-01-01 03:50:00,26.3,16.0,30.07,NW,313,3.9,3.9,64,0.00,,,0.00,VWS V14.01,2013-01-01 08:50:00,
2013-01-01 03:52:00,26.3,15.8,30.08,NW,326,3.4,4.9,64,0.00,,,0.00,VWS V14.01,2013-01-01 08:52:00,
2013-01-01 03:54:00,26.2,15.8,30.08,NNW,327,5.1,5.4,64,0.00,,,0.00,VWS V14.01,2013-01-01 08:54:00,
2013-01-01 03:56:00,26.3,16.0,30.08,NNE,24,3.9,6.3,64,0.00,,,0.00,VWS V14.01,2013-01-01 08:56:00,
2013-01-01 03:57:00,26.2,15.7,30.07,NW,326,3.2,3.9,64,0.00,,,0.00,VWS V14.01,2013-01-01 08:57:00,
2013-01-01 03:58:00,26.3,15.8,30.07,North,3,1.3,3.2,64,0.00,,,0.00,VWS V14.01,2013-01-01 08:58:00,
2013-01-01 04:01:00,26.3,15.7,30.07,NNW,336,4.2,4.2,64,0.00,,,0.00,VWS V14.01,2013-01-01 09:01:00,
2013-01-01 04:03:00,26.2,15.6,30.07,NNW,333,4.0,5.4,64,0.00,,,0.00,VWS V14.01,2013-01-01 09:03:00,
2013-01-01 04:07:00,26.1,15.5,30.06,North,349,2.0,4.0,64,0.00,,,0.00,VWS V14.01,2013-01-01 09:07:00,
2013-01-01 04:08:00,26.1,15.6,30.06,NW,322,4.7,4.7,64,0.00,,,0.00,VWS V14.01,2013-01-01 09:08:00,
2013-01-01 04:10:00,26.2,15.7,30.06,North,360,4.7,4.7,64,0.00,,,0.00,VWS V14.01,2013-01-01 09:10:00,
2013-01-01 04:11:00,26.1,15.7,30.06,NNW,341,1.6,2.8,64,0.00,,,0.00,VWS V14.01,2013-01-01 09:11:00,
2013-01-01 04:14:00,26.1,15.9,30.06,NW,317,4.0,5.9,65,0.00,,,0.00,VWS V14.01,2013-01-01 09:14:00,
2013-01-01 04:15:00,26.0,15.9,30.06,NNW,339,1.6,1.6,65,0.00,,,0.00,VWS V14.01,2013-01-01 09:15:00,
2013-01-01 04:16:00,26.1,16.0,30.07,WNW,301,2.2,3.7,65,0.00,,,0.00,VWS V14.01,2013-01-01 09:16:00,
2013-01-01 04:19:00,26.2,15.9,30.07,North,10,6.4,6.4,65,0.00,,,0.00,VWS V14.01,2013-01-01 09:19:00,
2013-01-01 04:20:00,26.1,15.7,30.07,NW,317,4.7,5.7,64,0.00,,,0.00,VWS V14.01,2013-01-01 09:20:00,
2013-01-01 04:21:00,26.0,16.0,30.07,NW,326,3.7,4.9,65,0.00,,,0.00,VWS V14.01,2013-01-01 09:21:00,
2013-01-01 04:24:00,26.0,16.0,30.07,NNW,348,2.5,2.5,65,0.00,,,0.00,VWS V14.01,2013-01-01 09:24:00,
2013-01-01 04:25:00,26.1,16.0,30.07,NW,318,4.7,4.7,65,0.00,,,0.00,VWS V14.01,2013-01-01 09:25:00,
2013-01-01 04:26:00,26.1,15.9,30.07,NNE,15,3.9,4.7,65,0.00,,,0.00,VWS V14.01,2013-01-01 09:26:00,
2013-01-01 04:29:00,26.1,15.7,30.07,NW,324,3.4,6.8,64,0.00,,,0.00,VWS V14.01,2013-01-01 09:29:00,
2013-01-01 04:30:00,26.1,15.6,30.08,NW,320,6.6,6.6,64,0.00,,,0.00,VWS V14.01,2013-01-01 09:30:00,
2013-01-01 04:32:00,26.1,15.6,30.08,NNW,327,4.5,4.7,64,0.00,,,0.00,VWS V14.01,2013-01-01 09:32:00,
2013-01-01 04:34:00,26.0,15.6,30.07,NNW,335,2.5,4.4,64,0.00,,,0.00,VWS V14.01,2013-01-01 09:34:00,
2013-01-01 04:35:00,25.9,15.7,30.07,NNW,328,2.0,2.5,65,0.00,,,0.00,VWS V14.01,2013-01-01 09:35:00,
2013-01-01 04:37:00,25.9,15.8,30.07,NW,312,3.2,3.2,65,0.00,,,0.00,VWS V14.01,2013-01-01 09:37:00,
2013-01-01 04:40:00,25.9,15.8,30.07,NNW,339,2.2,4.5,65,0.00,,,0.00,VWS V14.01,2013-01-01 09:40:00,
2013-01-01 04:42:00,25.8,15.9,30.07,NW,325,2.5,2.7,65,0.00,,,0.00,VWS V14.01,2013-01-01 09:42:00,
2013-01-01 04:43:00,25.8,15.9,30.07,NNW,333,2.3,2.7,66,0.00,,,0.00,VWS V14.01,2013-01-01 09:43:00,
2013-01-01 04:45:00,25.8,15.8,30.07,NW,325,0.0,3.2,65,0.00,,,0.00,VWS V14.01,2013-01-01 09:45:00,
2013-01-01 04:48:00,25.8,15.9,30.08,NW,317,2.8,3.5,66,0.00,,,0.00,VWS V14.01,2013-01-01 09:48:00,
2013-01-01 04:49:00,25.9,15.7,30.07,NW,323,2.7,2.8,65,0.00,,,0.00,VWS V14.01,2013-01-01 09:49:00,
2013-01-01 04:50:00,25.9,15.7,30.07,North,351,3.7,4.0,65,0.00,,,0.00,VWS V14.01,2013-01-01 09:50:00,
2013-01-01 04:53:00,25.8,15.4,30.07,NNW,340,5.2,5.2,64,0.00,,,0.00,VWS V14.01,2013-01-01 09:53:00,
2013-01-01 04:54:00,25.8,15.5,30.07,NNW,331,2.5,2.5,64,0.00,,,0.00,VWS V14.01,2013-01-01 09:54:00,
2013-01-01 04:56:00,25.8,15.5,30.07,NW,318,3.4,3.4,64,0.00,,,0.00,VWS V14.01,2013-01-01 09:56:00,
2013-01-01 04:59:00,25.8,15.5,30.08,NW,314,4.2,4.2,64,0.00,,,0.00,VWS V14.01,2013-01-01 09:59:00,
2013-01-01 05:00:00,26.0,15.2,30.13,NNW,336,5.4,6.3,63,0.00,,,0.00,VWS V14.01,2013-01-01 10:00:00,
2013-01-01 05:02:00,25.8,15.2,30.08,NW,322,2.3,2.3,64,0.00,,,0.00,VWS V14.01,2013-01-01 10:02:00,
2013-01-01 05:04:00,25.9,15.2,30.08,NNW,335,3.0,5.9,63,0.00,,,0.00,VWS V14.01,2013-01-01 10:04:00,
2013-01-01 05:05:00,25.9,15.1,30.08,NNW,328,5.6,5.9,63,0.00,,,0.00,VWS V14.01,2013-01-01 10:05:00,
2013-01-01 05:06:00,25.9,15.1,30.08,NNW,329,7.3,7.3,63,0.00,,,0.00,VWS V14.01,2013-01-01 10:06:00,
2013-01-01 05:08:00,25.9,15.1,30.08,North,4,4.2,4.2,63,0.00,,,0.00,VWS V14.01,2013-01-01 10:08:00,
2013-01-01 05:11:00,25.7,15.1,30.07,NE,42,1.8,2.3,64,0.00,,,0.00,VWS V14.01,2013-01-01 10:11:00,
2013-01-01 05:12:00,25.8,15.4,30.12,NNW,340,3.7,3.7,64,0.00,,,0.00,VWS V14.01,2013-01-01 10:12:00,
2013-01-01 05:14:00,25.8,15.2,30.07,North,9,4.9,4.9,64,0.00,,,0.00,VWS V14.01,2013-01-01 10:14:00,
2013-01-01 05:16:00,25.8,15.2,30.12,NNW,333,3.9,3.9,64,0.00,,,0.00,VWS V14.01,2013-01-01 10:16:00,
2013-01-01 05:17:00,25.8,15.1,30.09,North,351,4.5,4.5,64,0.00,,,0.00,VWS V14.01,2013-01-01 10:17:00,
2013-01-01 05:19:00,25.8,15.2,30.08,NNE,12,4.9,4.9,64,0.00,,,0.00,VWS V14.01,2013-01-01 10:19:00,
2013-01-01 05:21:00,25.7,14.9,30.07,North,350,3.0,4.4,63,0.00,,,0.00,VWS V14.01,2013-01-01 10:21:00,
2013-01-01 05:23:00,25.7,15.0,30.07,North,2,2.7,2.7,63,0.00,,,0.00,VWS V14.01,2013-01-01 10:23:00,
2013-01-01 05:25:00,25.6,14.9,30.07,North,8,2.7,3.7,63,0.00,,,0.00,VWS V14.01,2013-01-01 10:25:00,
2013-01-01 05:27:00,25.6,14.8,30.07,NNW,344,2.2,3.0,63,0.00,,,0.00,VWS V14.01,2013-01-01 10:27:00,
2013-01-01 05:28:00,25.6,14.9,30.13,NNE,21,1.3,2.3,63,0.00,,,0.00,VWS V14.01,2013-01-01 10:28:00,
2013-01-01 05:30:00,25.6,15.1,30.07,NNE,12,3.5,3.5,64,0.00,,,0.00,VWS V14.01,2013-01-01 10:30:00,
2013-01-01 05:32:00,25.5,15.0,30.07,NNE,12,4.7,4.7,64,0.00,,,0.00,VWS V14.01,2013-01-01 10:32:00,
2013-01-01 05:36:00,25.5,14.6,30.07,NNE,12,4.5,7.1,63,0.00,,,0.00,VWS V14.01,2013-01-01 10:36:00,
2013-01-01 05:37:00,25.5,14.7,30.07,NNE,26,1.1,2.8,63,0.00,,,0.00,VWS V14.01,2013-01-01 10:37:00,
2013-01-01 05:39:00,25.6,14.7,30.08,NE,40,4.7,4.7,63,0.00,,,0.00,VWS V14.01,2013-01-01 10:39:00,
2013-01-01 05:42:00,25.5,14.8,30.07,NE,43,2.8,2.8,63,0.00,,,0.00,VWS V14.01,2013-01-01 10:42:00,
2013-01-01 05:43:00,25.5,14.7,30.07,NNW,329,1.0,2.2,63,0.00,,,0.00,VWS V14.01,2013-01-01 10:43:00,
2013-01-01 05:45:00,25.5,14.8,30.07,NNW,330,2.3,2.7,63,0.00,,,0.00,VWS V14.01,2013-01-01 10:45:00,
2013-01-01 05:47:00,25.5,14.8,30.08,NW,311,1.5,2.7,63,0.00,,,0.00,VWS V14.01,2013-01-01 10:47:00,
2013-01-01 05:48:00,25.4,14.9,30.09,NNW,347,0.0,1.5,64,0.00,,,0.00,VWS V14.01,2013-01-01 10:48:00,
2013-01-01 05:50:00,25.4,15.0,30.07,NNW,347,0.0,0.0,64,0.00,,,0.00,VWS V14.01,2013-01-01 10:50:00,
2013-01-01 05:53:00,25.3,14.9,30.07,NNW,337,2.5,2.5,64,0.00,,,0.00,VWS V14.01,2013-01-01 10:53:00,
2013-01-01 05:55:00,25.4,15.0,30.06,NNW,348,0.0,3.9,64,0.00,,,0.00,VWS V14.01,2013-01-01 10:55:00,
2013-01-01 05:56:00,25.4,15.1,30.07,North,352,2.7,2.7,64,0.00,,,0.00,VWS V14.01,2013-01-01 10:56:00,
2013-01-01 05:59:00,25.4,15.0,30.07,North,352,3.5,3.5,64,0.00,,,0.00,VWS V14.01,2013-01-01 10:59:00,
2013-01-01 06:00:00,25.4,15.0,30.07,North,9,3.5,3.5,64,0.00,,,0.00,VWS V14.01,2013-01-01 11:00:00,
2013-01-01 06:01:00,25.3,15.0,30.07,North,3,1.5,3.4,64,0.00,,,0.00,VWS V14.01,2013-01-01 11:01:00,
2013-01-01 06:02:00,25.2,15.1,30.07,NNW,346,0.0,3.4,65,0.00,,,0.00,VWS V14.01,2013-01-01 11:02:00,
2013-01-01 06:06:00,25.2,15.3,30.08,NW,320,0.0,3.4,66,0.00,,,0.00,VWS V14.01,2013-01-01 11:06:00,
2013-01-01 06:07:00,25.2,15.3,30.08,NW,320,0.0,3.4,66,0.00,,,0.00,VWS V14.01,2013-01-01 11:07:00,
2013-01-01 06:09:00,25.1,15.2,30.08,NNW,331,0.0,3.4,66,0.00,,,0.00,VWS V14.01,2013-01-01 11:09:00,
2013-01-01 06:12:00,25.1,15.4,30.08,NNE,31,0.0,3.4,66,0.00,,,0.00,VWS V14.01,2013-01-01 11:12:00,
2013-01-01 06:13:00,25.1,15.4,30.08,NNE,31,0.0,3.4,66,0.00,,,0.00,VWS V14.01,2013-01-01 11:13:00,
2013-01-01 06:15:00,25.0,15.7,30.08,NE,37,0.0,3.4,67,0.00,,,0.00,VWS V14.01,2013-01-01 11:15:00,
2013-01-01 06:17:00,24.8,15.9,30.09,NE,37,0.0,3.4,68,0.00,,,0.00,VWS V14.01,2013-01-01 11:17:00,
2013-01-01 06:18:00,24.9,16.1,30.07,NE,37,0.0,3.4,69,0.00,,,0.00,VWS V14.01,2013-01-01 11:18:00,
2013-01-01 06:19:00,24.8,16.1,30.07,NE,37,0.0,3.4,69,0.00,,,0.00,VWS V14.01,2013-01-01 11:19:00,
2013-01-01 06:20:00,24.7,16.1,30.12,NE,37,0.0,3.4,69,0.00,,,0.00,VWS V14.01,2013-01-01 11:20:00,
2013-01-01 06:23:00,24.7,16.0,30.07,NE,37,0.0,3.4,69,0.00,,,0.00,VWS V14.01,2013-01-01 11:23:00,
2013-01-01 06:26:00,24.8,16.3,30.08,NNE,26,0.0,3.4,70,0.00,,,0.00,VWS V14.01,2013-01-01 11:26:00,
2013-01-01 06:27:00,24.7,16.3,30.08,NNE,26,0.0,3.4,70,0.00,,,0.00,VWS V14.01,2013-01-01 11:27:00,
2013-01-01 06:29:00,24.6,13.3,30.07,NNE,20,0.0,3.4,62,0.00,,,0.00,VWS V14.01,2013-01-01 11:29:00,
2013-01-01 06:30:00,24.7,16.6,30.07,NE,42,0.0,3.4,71,0.00,,,0.00,VWS V14.01,2013-01-01 11:30:00,
2013-01-01 06:32:00,24.7,16.5,30.07,NNE,15,2.2,3.4,71,0.00,,,0.00,VWS V14.01,2013-01-01 11:32:00,
2013-01-01 06:33:00,24.8,16.8,30.08,NNE,14,4.5,4.5,71,0.00,,,0.00,VWS V14.01,2013-01-01 11:33:00,
2013-01-01 06:35:00,24.9,16.7,30.07,NE,34,3.2,5.1,71,0.00,,,0.00,VWS V14.01,2013-01-01 11:35:00,
2013-01-01 06:36:00,24.9,16.7,30.07,NE,34,3.2,5.1,71,0.00,,,0.00,VWS V14.01,2013-01-01 11:36:00,
2013-01-01 06:38:00,24.8,16.3,30.08,NNE,25,4.0,5.1,70,0.00,,,0.00,VWS V14.01,2013-01-01 11:38:00,
2013-01-01 06:41:00,24.4,16.5,30.08,NNE,31,1.1,5.1,71,0.00,,,0.00,VWS V14.01,2013-01-01 11:41:00,
2013-01-01 06:42:00,24.3,16.5,30.08,NE,41,1.0,5.1,72,0.00,,,0.00,VWS V14.01,2013-01-01 11:42:00,
2013-01-01 06:44:00,24.4,16.6,30.09,NE,35,4.0,5.1,72,0.00,,,0.00,VWS V14.01,2013-01-01 11:44:00,
2013-01-01 06:46:00,24.4,15.9,30.09,NNE,28,5.6,5.6,70,0.00,,,0.00,VWS V14.01,2013-01-01 11:46:00,
2013-01-01 06:47:00,24.3,15.9,30.08,North,7,3.5,5.6,70,0.00,,,0.00,VWS V14.01,2013-01-01 11:47:00,
2013-01-01 06:49:00,24.2,15.9,30.09,North,7,4.2,5.6,70,0.00,,,0.00,VWS V14.01,2013-01-01 11:49:00,
2013-01-01 06:52:00,24.3,14.3,30.09,NE,44,4.7,5.6,65,0.00,,,0.00,VWS V14.01,2013-01-01 11:52:00,
2013-01-01 06:53:00,24.3,15.0,30.08,WNW,303,2.5,5.6,67,0.00,,,0.00,VWS V14.01,2013-01-01 11:53:00,
2013-01-01 06:54:00,24.4,15.0,30.09,North,1,5.6,5.6,67,0.00,,,0.00,VWS V14.01,2013-01-01 11:54:00,
2013-01-01 06:59:00,24.3,14.1,30.10,NNE,21,4.9,5.6,64,0.00,,,0.00,VWS V14.01,2013-01-01 11:59:00,
2013-01-01 07:00:00,24.3,14.0,30.09,NNE,28,3.4,5.6,64,0.00,,,0.00,VWS V14.01,2013-01-01 12:00:00,
2013-01-01 07:01:00,24.3,13.9,30.09,North,352,1.8,5.6,64,0.00,,,0.00,VWS V14.01,2013-01-01 12:01:00,
2013-01-01 07:05:00,24.4,13.4,30.09,NE,34,3.5,4.5,62,0.00,,,0.00,VWS V14.01,2013-01-01 12:05:00,
2013-01-01 07:06:00,24.3,13.4,30.09,NE,39,4.7,4.7,62,0.00,,,0.00,VWS V14.01,2013-01-01 12:06:00,
2013-01-01 07:09:00,24.3,13.4,30.10,NNE,26,2.8,3.2,63,0.00,,,0.00,VWS V14.01,2013-01-01 12:09:00,
2013-01-01 07:11:00,24.2,13.2,30.10,NE,40,2.3,2.3,63,0.00,,,0.00,VWS V14.01,2013-01-01 12:11:00,
2013-01-01 07:12:00,24.0,13.2,30.10,NE,40,1.3,2.3,63,0.00,,,0.00,VWS V14.01,2013-01-01 12:12:00,
2013-01-01 07:15:00,24.3,13.1,30.10,NNW,346,3.7,3.7,62,0.00,,,0.00,VWS V14.01,2013-01-01 12:15:00,
2013-01-01 07:17:00,24.4,12.8,30.10,North,0,5.7,5.7,61,0.00,,,0.00,VWS V14.01,2013-01-01 12:17:00,
2013-01-01 07:18:00,24.4,12.7,30.10,North,10,5.1,5.7,60,0.00,,,0.00,VWS V14.01,2013-01-01 12:18:00,
2013-01-01 07:22:00,24.1,12.7,30.10,NNW,338,3.2,4.0,61,0.00,,,0.00,VWS V14.01,2013-01-01 12:22:00,
2013-01-01 07:23:00,24.2,12.8,30.11,NNE,29,1.3,3.9,61,0.00,,,0.00,VWS V14.01,2013-01-01 12:23:00,
2013-01-01 07:25:00,24.3,12.9,30.10,NE,36,5.9,5.9,61,0.00,,,0.00,VWS V14.01,2013-01-01 12:25:00,
2013-01-01 07:28:00,24.2,12.5,30.11,NE,42,2.3,2.3,60,0.00,,,0.00,VWS V14.01,2013-01-01 12:28:00,
2013-01-01 07:29:00,24.1,12.5,30.11,NNE,28,1.5,2.3,61,0.00,,,0.00,VWS V14.01,2013-01-01 12:29:00,
2013-01-01 07:30:00,24.1,12.9,30.11,NNE,16,3.0,3.4,62,0.00,,,0.00,VWS V14.01,2013-01-01 12:30:00,
2013-01-01 07:31:00,24.0,12.9,30.11,North,352,0.0,3.0,62,0.00,,,0.00,VWS V14.01,2013-01-01 12:31:00,
2013-01-01 07:34:00,24.1,12.9,30.11,NNW,348,3.4,6.1,62,0.00,,,0.00,VWS V14.01,2013-01-01 12:34:00,
2013-01-01 07:36:00,24.0,13.0,30.12,North,11,1.0,1.0,62,0.00,,,0.00,VWS V14.01,2013-01-01 12:36:00,
2013-01-01 07:40:00,23.7,13.2,30.12,North,349,0.0,2.3,63,0.00,,,0.00,VWS V14.01,2013-01-01 12:40:00,
2013-01-01 07:41:00,23.9,13.3,30.11,North,5,0.0,0.0,63,0.00,,,0.00,VWS V14.01,2013-01-01 12:41:00,
2013-01-01 07:42:00,24.0,13.2,30.12,North,3,1.8,1.8,63,0.00,,,0.00,VWS V14.01,2013-01-01 12:42:00,
2013-01-01 07:43:00,23.9,13.3,30.12,North,0,1.5,1.5,63,0.00,,,0.00,VWS V14.01,2013-01-01 12:43:00,
2013-01-01 07:46:00,24.0,13.4,30.12,NNE,15,0.0,3.4,63,0.00,,,0.00,VWS V14.01,2013-01-01 12:46:00,
2013-01-01 07:47:00,24.0,13.5,30.12,NNW,339,2.5,2.5,64,0.00,,,0.00,VWS V14.01,2013-01-01 12:47:00,
2013-01-01 07:49:00,24.0,13.5,30.12,NNW,338,1.3,1.3,63,0.00,,,0.00,VWS V14.01,2013-01-01 12:49:00,
2013-01-01 07:52:00,23.9,13.6,30.12,NE,42,0.0,0.0,64,0.00,,,0.00,VWS V14.01,2013-01-01 12:52:00,
2013-01-01 07:53:00,23.9,13.7,30.12,NNW,327,2.0,2.0,65,0.00,,,0.00,VWS V14.01,2013-01-01 12:53:00,
2013-01-01 07:54:00,23.8,13.9,30.12,NNE,19,2.0,3.2,65,0.00,,,0.00,VWS V14.01,2013-01-01 12:54:00,
2013-01-01 07:55:00,23.7,13.9,30.12,NNE,19,0.0,2.0,66,0.00,,,0.00,VWS V14.01,2013-01-01 12:55:00,
2013-01-01 07:57:00,23.8,13.7,30.12,North,7,0.0,0.0,65,0.00,,,0.00,VWS V14.01,2013-01-01 12:57:00,
2013-01-01 07:59:00,23.9,13.6,30.12,North,349,3.2,3.2,64,0.00,,,0.00,VWS V14.01,2013-01-01 12:59:00,
2013-01-01 08:00:00,23.8,13.6,30.12,NNW,339,0.0,3.2,64,0.00,,,0.00,VWS V14.01,2013-01-01 13:00:00,
2013-01-01 08:03:00,23.7,13.5,30.12,NNE,17,0.0,2.3,65,0.00,,,0.00,VWS V14.01,2013-01-01 13:03:00,
2013-01-01 08:05:00,23.7,13.6,30.12,North,6,0.0,4.9,65,0.00,,,0.00,VWS V14.01,2013-01-01 13:05:00,
2013-01-01 08:10:00,23.7,13.5,30.13,NE,42,2.3,2.5,64,0.00,,,0.00,VWS V14.01,2013-01-01 13:10:00,
2013-01-01 08:11:00,23.7,13.5,30.13,North,3,1.5,2.3,64,0.00,,,0.00,VWS V14.01,2013-01-01 13:11:00,
2013-01-01 08:13:00,23.7,13.2,30.14,NNW,337,3.9,3.9,64,0.00,,,0.00,VWS V14.01,2013-01-01 13:13:00,
2013-01-01 08:16:00,23.5,13.5,30.12,NE,39,2.7,2.7,65,0.00,,,0.00,VWS V14.01,2013-01-01 13:16:00,
2013-01-01 08:17:00,23.5,13.4,30.13,North,2,2.2,2.2,65,0.00,,,0.00,VWS V14.01,2013-01-01 13:17:00,
2013-01-01 08:18:00,23.5,13.4,30.13,NNW,342,1.0,2.2,65,0.00,,,0.00,VWS V14.01,2013-01-01 13:18:00,
2013-01-01 08:19:00,23.5,13.7,30.13,NNE,18,3.5,3.5,66,0.00,,,0.00,VWS V14.01,2013-01-01 13:19:00,
2013-01-01 08:22:00,23.3,13.4,30.13,NE,39,0.0,0.0,65,0.00,,,0.00,VWS V14.01,2013-01-01 13:22:00,
2013-01-01 08:23:00,23.3,13.6,30.13,NNE,21,1.3,1.3,66,0.00,,,0.00,VWS V14.01,2013-01-01 13:23:00,
2013-01-01 08:24:00,23.4,13.4,30.13,NE,37,2.7,2.7,65,0.00,,,0.00,VWS V14.01,2013-01-01 13:24:00,
2013-01-01 08:28:00,23.2,13.2,30.14,NNE,27,1.8,3.7,65,0.00,,,0.00,VWS V14.01,2013-01-01 13:28:00,
2013-01-01 08:29:00,23.1,13.2,30.13,NNE,20,0.0,3.7,65,0.00,,,0.00,VWS V14.01,2013-01-01 13:29:00,
2013-01-01 08:30:00,23.2,13.3,30.12,NNE,25,4.4,4.4,65,0.00,,,0.00,VWS V14.01,2013-01-01 13:30:00,
2013-01-01 08:33:00,22.9,13.1,30.14,NW,304,0.0,1.3,66,0.00,,,0.00,VWS V14.01,2013-01-01 13:33:00,
2013-01-01 08:34:00,22.8,13.1,30.13,NW,306,0.0,0.0,66,0.00,,,0.00,VWS V14.01,2013-01-01 13:34:00,
2013-01-01 08:35:00,23.1,13.4,30.15,NNE,12,0.0,1.0,66,0.00,,,0.00,VWS V14.01,2013-01-01 13:35:00,
2013-01-01 08:37:00,23.0,9.6,30.14,NNW,339,0.0,3.2,56,0.00,,,0.00,VWS V14.01,2013-01-01 13:37:00,
2013-01-01 08:38:00,23.1,13.3,30.14,North,352,0.0,2.0,66,0.00,,,0.00,VWS V14.01,2013-01-01 13:38:00,
2013-01-01 08:39:00,23.0,13.1,30.14,NE,43,0.0,0.0,65,0.00,,,0.00,VWS V14.01,2013-01-01 13:39:00,
2013-01-01 08:41:00,23.0,13.2,30.14,NNE,15,2.0,2.3,66,0.00,,,0.00,VWS V14.01,2013-01-01 13:41:00,
2013-01-01 08:42:00,23.0,13.2,30.14,NNE,28,1.5,1.6,65,0.00,,,0.00,VWS V14.01,2013-01-01 13:42:00,
2013-01-01 08:44:00,23.1,13.1,30.15,NNE,25,0.0,0.0,65,0.00,,,0.00,VWS V14.01,2013-01-01 13:44:00,
2013-01-01 08:46:00,23.3,13.4,30.15,NNE,12,0.0,0.0,65,0.00,,,0.00,VWS V14.01,2013-01-01 13:46:00,
2013-01-01 08:50:00,23.5,13.1,30.16,NNW,346,0.0,0.0,64,0.00,,,0.00,VWS V14.01,2013-01-01 13:50:00,
2013-01-01 08:51:00,23.4,13.1,30.16,NNW,345,0.0,0.0,64,0.00,,,0.00,VWS V14.01,2013-01-01 13:51:00,
2013-01-01 08:53:00,23.2,13.0,30.17,NE,40,0.0,0.0,64,0.00,,,0.00,VWS V14.01,2013-01-01 13:53:00,
2013-01-01 08:56:00,23.2,13.2,30.17,North,3,0.0,0.0,65,0.00,,,0.00,VWS V14.01,2013-01-01 13:56:00,
2013-01-01 08:57:00,23.2,9.4,30.16,NNE,30,2.0,2.0,55,0.00,,,0.00,VWS V14.01,2013-01-01 13:57:00,
2013-01-01 08:59:00,23.0,12.8,30.17,NNE,12,1.3,3.4,64,0.00,,,0.00,VWS V14.01,2013-01-01 13:59:00,
2013-01-01 09:02:00,23.0,13.0,30.17,North,7,0.0,0.0,65,0.00,,,0.00,VWS V14.01,2013-01-01 14:02:00,
2013-01-01 09:05:00,23.0,13.1,30.16,NNE,33,1.3,1.3,65,0.00,,,0.00,VWS V14.01,2013-01-01 14:05:00,
2013-01-01 09:06:00,22.8,13.1,30.16,NNE,14,2.2,2.2,66,0.00,,,0.00,VWS V14.01,2013-01-01 14:06:00,
2013-01-01 09:08:00,23.0,12.9,30.16,NE,34,3.0,3.0,65,0.00,,,0.00,VWS V14.01,2013-01-01 14:08:00,
2013-01-01 09:11:00,23.0,12.9,30.16,NE,34,0.0,0.0,65,0.00,,,0.00,VWS V14.01,2013-01-01 14:11:00,
2013-01-01 09:12:00,23.1,13.0,30.16,NE,34,0.0,0.0,65,0.00,,,0.00,VWS V14.01,2013-01-01 14:12:00,
2013-01-01 09:13:00,23.3,13.0,30.15,NE,40,2.3,2.3,64,0.00,,,0.00,VWS V14.01,2013-01-01 14:13:00,
2013-01-01 09:14:00,23.2,13.1,30.16,NE,40,1.0,2.3,65,0.00,,,0.00,VWS V14.01,2013-01-01 14:14:00,
2013-01-01 09:17:00,23.3,12.6,30.17,NNW,331,0.0,2.2,63,0.00,,,0.00,VWS V14.01,2013-01-01 14:17:00,
2013-01-01 09:18:00,23.2,12.8,30.17,North,352,2.7,2.7,64,0.00,,,0.00,VWS V14.01,2013-01-01 14:18:00,
2013-01-01 09:19:00,23.1,12.7,30.16,NE,37,1.5,1.5,64,0.00,,,0.00,VWS V14.01,2013-01-01 14:19:00,
2013-01-01 09:22:00,23.1,12.9,30.17,NNE,24,0.0,1.5,64,0.00,,,0.00,VWS V14.01,2013-01-01 14:22:00,
2013-01-01 09:23:00,23.3,13.0,30.16,NNE,23,0.0,0.0,64,0.00,,,0.00,VWS V14.01,2013-01-01 14:23:00,
2013-01-01 09:25:00,23.1,12.4,30.16,NNE,27,3.0,3.0,63,0.00,,,0.00,VWS V14.01,2013-01-01 14:25:00,
2013-01-01 09:26:00,23.2,12.7,30.15,NNE,19,2.7,3.2,63,0.00,,,0.00,VWS V14.01,2013-01-01 14:26:00,
2013-01-01 09:27:00,23.2,12.5,30.15,NNE,22,2.2,2.7,63,0.00,,,0.00,VWS V14.01,2013-01-01 14:27:00,
2013-01-01 09:29:00,23.2,12.7,30.16,NNE,24,1.8,2.5,64,0.00,,,0.00,VWS V14.01,2013-01-01 14:29:00,
2013-01-01 09:31:00,23.3,12.1,30.16,NNE,20,4.0,4.0,62,0.00,,,0.00,VWS V14.01,2013-01-01 14:31:00,
2013-01-01 09:32:00,23.2,11.9,30.16,NNE,24,4.2,4.2,61,0.00,,,0.00,VWS V14.01,2013-01-01 14:32:00,
2013-01-01 09:34:00,23.2,11.6,30.15,NNE,22,4.2,5.6,61,0.00,,,0.00,VWS V14.01,2013-01-01 14:34:00,
2013-01-01 09:37:00,23.5,9.1,30.16,North,8,3.4,3.7,53,0.00,,,0.00,VWS V14.01,2013-01-01 14:37:00,
2013-01-01 09:39:00,23.4,11.6,30.15,NNE,17,3.4,5.6,60,0.00,,,0.00,VWS V14.01,2013-01-01 14:39:00,
2013-01-01 09:40:00,23.4,11.8,30.16,NNE,15,2.7,4.4,61,0.00,,,0.00,VWS V14.01,2013-01-01 14:40:00,
2013-01-01 09:42:00,23.2,11.4,30.15,North,8,4.4,4.4,60,0.00,,,0.00,VWS V14.01,2013-01-01 14:42:00,
2013-01-01 09:43:00,23.2,11.4,30.20,NNE,24,2.3,4.4,60,0.00,,,0.00,VWS V14.01,2013-01-01 14:43:00,
2013-01-01 09:47:00,23.4,11.7,30.15,NNE,29,3.0,3.2,60,0.00,,,0.00,VWS V14.01,2013-01-01 14:47:00,
2013-01-01 09:48:00,23.5,11.0,30.15,NE,38,4.7,4.7,58,0.00,,,0.00,VWS V14.01,2013-01-01 14:48:00,
2013-01-01 09:53:00,23.2,10.9,30.19,NE,50,5.2,5.2,59,0.00,,,0.00,VWS V14.01,2013-01-01 14:53:00,
2013-01-01 09:54:00,23.5,11.4,30.16,NNE,20,3.7,5.2,59,0.00,,,0.00,VWS V14.01,2013-01-01 14:54:00,
2013-01-01 09:55:00,23.3,11.1,30.15,NE,37,4.4,4.4,59,0.00,,,0.00,VWS V14.01,2013-01-01 14:55:00,
2013-01-01 09:58:00,23.7,9.8,30.15,North,350,5.2,5.2,55,0.00,,,0.00,VWS V14.01,2013-01-01 14:58:00,
2013-01-01 09:59:00,23.7,11.0,30.15,NNE,33,3.2,5.2,58,0.00,,,0.00,VWS V14.01,2013-01-01 14:59:00,
2013-01-01 10:02:00,23.9,10.7,30.15,NNE,26,5.4,5.4,57,0.00,,,0.00,VWS V14.01,2013-01-01 15:02:00,
2013-01-01 10:03:00,23.8,10.4,30.15,NNE,24,5.2,5.4,56,0.00,,,0.00,VWS V14.01,2013-01-01 15:03:00,
2013-01-01 10:04:00,24.0,10.3,30.15,NNE,23,7.1,7.1,55,0.00,,,0.00,VWS V14.01,2013-01-01 15:04:00,
2013-01-01 10:08:00,23.7,10.2,30.16,NE,40,3.7,7.6,56,0.00,,,0.00,VWS V14.01,2013-01-01 15:08:00,
2013-01-01 10:09:00,24.0,10.4,30.16,North,4,3.4,7.6,56,0.00,,,0.00,VWS V14.01,2013-01-01 15:09:00,
2013-01-01 10:10:00,23.7,9.1,30.16,NNE,31,2.5,7.6,53,0.00,,,0.00,VWS V14.01,2013-01-01 15:10:00,
2013-01-01 10:13:00,23.6,9.4,30.16,NNE,19,3.9,7.6,54,0.00,,,0.00,VWS V14.01,2013-01-01 15:13:00,
2013-01-01 10:14:00,24.5,10.6,30.16,North,7,3.2,7.6,55,0.00,,,0.00,VWS V14.01,2013-01-01 15:14:00,
2013-01-01 10:15:00,24.5,10.6,30.16,North,7,3.2,7.6,55,0.00,,,0.00,VWS V14.01,2013-01-01 15:15:00,
2013-01-01 10:16:00,24.0,9.6,30.16,NE,37,4.0,7.6,54,0.00,,,0.00,VWS V14.01,2013-01-01 15:16:00,
2013-01-01 10:19:00,24.3,9.2,30.15,NE,50,6.1,8.1,52,0.00,,,0.00,VWS V14.01,2013-01-01 15:19:00,
2013-01-01 10:21:00,24.5,9.3,30.16,NE,35,3.9,8.1,52,0.00,,,0.00,VWS V14.01,2013-01-01 15:21:00,
2013-01-01 10:23:00,23.8,8.3,30.16,NNE,28,7.6,8.1,51,0.00,,,0.00,VWS V14.01,2013-01-01 15:23:00,
2013-01-01 10:24:00,24.0,8.5,30.15,North,5,7.1,8.5,51,0.00,,,0.00,VWS V14.01,2013-01-01 15:24:00,
2013-01-01 10:26:00,24.1,8.7,30.15,North,360,4.5,8.5,51,0.00,,,0.00,VWS V14.01,2013-01-01 15:26:00,
2013-01-01 10:29:00,23.9,8.9,30.15,NNE,23,6.4,8.5,52,0.00,,,0.00,VWS V14.01,2013-01-01 15:29:00,
2013-01-01 10:30:00,23.7,8.5,30.15,NNE,21,6.6,8.5,52,0.00,,,0.00,VWS V14.01,2013-01-01 15:30:00,
2013-01-01 10:31:00,24.9,9.4,30.16,NNE,19,6.9,8.5,51,0.00,,,0.00,VWS V14.01,2013-01-01 15:31:00,
2013-01-01 10:35:00,23.8,8.0,30.15,NNE,30,8.3,8.5,50,0.00,,,0.00,VWS V14.01,2013-01-01 15:35:00,
2013-01-01 10:36:00,23.5,7.7,30.14,NE,40,8.1,8.5,50,0.00,,,0.00,VWS V14.01,2013-01-01 15:36:00,
2013-01-01 10:37:00,23.5,7.7,30.14,NE,40,8.1,8.5,50,0.00,,,0.00,VWS V14.01,2013-01-01 15:37:00,
2013-01-01 10:40:00,24.9,9.2,30.14,North,11,5.4,8.5,51,0.00,,,0.00,VWS V14.01,2013-01-01 15:40:00,
2013-01-01 10:42:00,24.8,9.0,30.13,NNE,25,6.8,8.5,50,0.00,,,0.00,VWS V14.01,2013-01-01 15:42:00,
2013-01-01 10:43:00,25.6,9.8,30.11,North,349,5.4,8.5,51,0.00,,,0.00,VWS V14.01,2013-01-01 15:43:00,
2013-01-01 10:45:00,25.0,9.4,30.12,NNE,13,5.1,8.5,51,0.00,,,0.00,VWS V14.01,2013-01-01 15:45:00,
2013-01-01 10:47:00,24.5,9.1,30.12,NNE,19,5.2,8.8,51,0.00,,,0.00,VWS V14.01,2013-01-01 15:47:00,
2013-01-01 10:48:00,24.6,9.3,30.11,NE,44,6.6,8.8,52,0.00,,,0.00,VWS V14.01,2013-01-01 15:48:00,
2013-01-01 10:51:00,24.4,8.6,30.12,NE,39,7.6,10.9,50,0.00,,,0.00,VWS V14.01,2013-01-01 15:51:00,
2013-01-01 10:52:00,24.2,8.0,30.11,NNE,27,7.6,10.9,49,0.00,,,0.00,VWS V14.01,2013-01-01 15:52:00,
2013-01-01 10:53:00,24.2,8.2,30.11,NE,53,6.9,10.9,50,0.00,,,0.00,VWS V14.01,2013-01-01 15:53:00,
2013-01-01 10:56:00,24.4,8.4,30.12,NNE,31,5.9,10.9,50,0.00,,,0.00,VWS V14.01,2013-01-01 15:56:00,
2013-01-01 10:58:00,24.2,7.4,30.12,NE,37,7.6,10.9,48,0.00,,,0.00,VWS V14.01,2013-01-01 15:58:00,
2013-01-01 10:59:00,23.9,7.4,30.12,NE,35,10.4,10.9,49,0.00,,,0.00,VWS V14.01,2013-01-01 15:59:00,
2013-01-01 11:01:00,24.0,7.4,30.13,NNE,32,9.5,10.9,49,0.00,,,0.00,VWS V14.01,2013-01-01 16:01:00,
2013-01-01 11:02:00,24.7,8.7,30.12,ENE,60,4.9,7.6,50,0.00,,,0.00,VWS V14.01,2013-01-01 16:02:00,
2013-01-01 11:03:00,25.8,9.5,30.12,North,2,4.9,7.6,49,0.00,,,0.00,VWS V14.01,2013-01-01 16:03:00,
2013-01-01 11:05:00,24.1,7.4,30.13,NE,35,6.3,6.3,48,0.00,,,0.00,VWS V14.01,2013-01-01 16:05:00,
2013-01-01 11:07:00,23.6,6.9,30.13,NE,47,9.2,9.2,48,0.00,,,0.00,VWS V14.01,2013-01-01 16:07:00,
2013-01-01 11:09:00,25.4,8.9,30.14,North,5,6.4,8.3,49,0.00,,,0.00,VWS V14.01,2013-01-01 16:09:00,
2013-01-01 11:12:00,25.4,9.1,30.13,NNE,25,5.4,7.3,49,0.00,,,0.00,VWS V14.01,2013-01-01 16:12:00,
2013-01-01 11:13:00,25.4,9.1,30.13,NNE,25,5.4,7.3,49,0.00,,,0.00,VWS V14.01,2013-01-01 16:13:00,
2013-01-01 11:14:00,24.1,7.0,30.14,NE,50,5.6,5.6,47,0.00,,,0.00,VWS V14.01,2013-01-01 16:14:00,
2013-01-01 11:17:00,25.7,8.9,30.19,NE,38,2.7,4.2,48,0.00,,,0.00,VWS V14.01,2013-01-01 16:17:00,
2013-01-01 11:18:00,24.9,7.4,30.15,NE,36,4.5,4.5,47,0.00,,,0.00,VWS V14.01,2013-01-01 16:18:00,
2013-01-01 11:20:00,23.6,6.4,30.14,NE,52,6.4,6.4,47,0.00,,,0.00,VWS V14.01,2013-01-01 16:20:00,
2013-01-01 11:21:00,24.8,7.9,30.14,NNE,28,3.5,4.4,48,0.00,,,0.00,VWS V14.01,2013-01-01 16:21:00,
2013-01-01 11:23:00,24.8,7.7,30.13,NNE,22,4.0,4.0,48,0.00,,,0.00,VWS V14.01,2013-01-01 16:23:00,
2013-01-01 11:24:00,25.7,8.6,30.14,North,5,4.5,5.7,48,0.00,,,0.00,VWS V14.01,2013-01-01 16:24:00,
2013-01-01 11:27:00,24.0,5.3,30.14,NE,35,6.8,6.8,44,0.00,,,0.00,VWS V14.01,2013-01-01 16:27:00,
2013-01-01 11:29:00,24.5,7.6,30.14,NNE,16,4.2,4.2,48,0.00,,,0.00,VWS V14.01,2013-01-01 16:29:00,
2013-01-01 11:32:00,24.3,7.5,30.14,NNE,29,5.4,7.6,48,0.00,,,0.00,VWS V14.01,2013-01-01 16:32:00,
2013-01-01 11:33:00,23.8,6.8,30.14,NE,43,6.4,6.4,48,0.00,,,0.00,VWS V14.01,2013-01-01 16:33:00,
2013-01-01 11:34:00,23.8,6.8,30.14,NE,36,6.1,6.1,48,0.00,,,0.00,VWS V14.01,2013-01-01 16:34:00,
2013-01-01 11:36:00,25.9,9.0,30.14,NNE,21,3.5,4.4,48,0.00,,,0.00,VWS V14.01,2013-01-01 16:36:00,
2013-01-01 11:39:00,25.7,8.2,30.14,North,8,3.5,4.4,47,0.00,,,0.00,VWS V14.01,2013-01-01 16:39:00,
2013-01-01 11:40:00,25.4,7.4,30.14,North,2,5.1,5.1,46,0.00,,,0.00,VWS V14.01,2013-01-01 16:40:00,
2013-01-01 11:41:00,25.6,7.7,30.13,NNE,22,2.8,2.8,46,0.00,,,0.00,VWS V14.01,2013-01-01 16:41:00,
2013-01-01 11:42:00,25.4,7.4,30.13,NNE,26,3.9,3.9,46,0.00,,,0.00,VWS V14.01,2013-01-01 16:42:00,
2013-01-01 11:45:00,25.4,7.4,30.13,NE,38,3.5,4.4,46,0.00,,,0.00,VWS V14.01,2013-01-01 16:45:00,
2013-01-01 11:46:00,26.0,7.9,30.14,North,2,5.7,5.7,46,0.00,,,0.00,VWS V14.01,2013-01-01 16:46:00,
2013-01-01 11:47:00,25.8,7.6,30.13,North,351,5.7,6.8,45,0.00,,,0.00,VWS V14.01,2013-01-01 16:47:00,
2013-01-01 11:48:00,24.8,6.6,30.14,WNW,301,6.9,6.9,45,0.00,,,0.00,VWS V14.01,2013-01-01 16:48:00,
2013-01-01 11:50:00,26.2,8.2,30.13,NNW,334,5.2,5.2,46,0.00,,,0.00,VWS V14.01,2013-01-01 16:50:00,
2013-01-01 11:51:00,26.2,8.2,30.13,NE,39,4.2,4.2,46,0.00,,,0.00,VWS V14.01,2013-01-01 16:51:00,
2013-01-01 11:54:00,26.4,8.8,30.12,North,0,2.8,4.7,47,0.00,,,0.00,VWS V14.01,2013-01-01 16:54:00,
2013-01-01 11:56:00,25.9,7.9,30.13,NNW,332,3.2,3.2,46,0.00,,,0.00,VWS V14.01,2013-01-01 16:56:00,
2013-01-01 11:58:00,24.4,6.5,30.13,NNE,25,5.9,6.8,46,0.00,,,0.00,VWS V14.01,2013-01-01 16:58:00,
2013-01-01 11:59:00,24.1,6.2,30.14,NE,37,4.9,5.7,46,0.00,,,0.00,VWS V14.01,2013-01-01 16:59:00,
2013-01-01 12:00:00,25.2,7.1,30.13,NE,40,2.7,5.7,46,0.00,,,0.00,VWS V14.01,2013-01-01 17:00:00,
2013-01-01 12:02:00,25.6,6.7,30.12,North,3,1.5,1.8,44,0.00,,,0.00,VWS V14.01,2013-01-01 17:02:00,
2013-01-01 12:05:00,25.8,7.4,30.13,NE,34,2.8,3.2,45,0.00,,,0.00,VWS V14.01,2013-01-01 17:05:00,
2013-01-01 12:07:00,26.3,8.4,30.12,North,350,4.0,4.0,46,0.00,,,0.00,VWS V14.01,2013-01-01 17:07:00,
2013-01-01 12:10:00,24.0,5.6,30.12,NE,41,5.1,5.1,45,0.00,,,0.00,VWS V14.01,2013-01-01 17:10:00,
2013-01-01 12:12:00,24.7,5.9,30.13,NNE,26,6.3,6.3,44,0.00,,,0.00,VWS V14.01,2013-01-01 17:12:00,
2013-01-01 12:13:00,25.2,6.7,30.12,NNE,30,4.7,6.3,45,0.00,,,0.00,VWS V14.01,2013-01-01 17:13:00,
2013-01-01 12:15:00,24.8,6.5,30.12,NE,46,7.1,7.1,45,0.00,,,0.00,VWS V14.01,2013-01-01 17:15:00,
2013-01-01 12:16:00,24.8,6.9,30.12,NNE,31,5.4,5.4,46,0.00,,,0.00,VWS V14.01,2013-01-01 17:16:00,
2013-01-01 12:18:00,25.9,7.9,30.11,NE,54,4.4,4.4,46,0.00,,,0.00,VWS V14.01,2013-01-01 17:18:00,
2013-01-01 12:20:00,26.2,8.1,30.12,NNE,20,3.9,6.9,46,0.00,,,0.00,VWS V14.01,2013-01-01 17:20:00,
2013-01-01 12:22:00,25.8,4.2,30.12,NNW,342,5.7,5.7,39,0.00,,,0.00,VWS V14.01,2013-01-01 17:22:00,
2013-01-01 12:24:00,25.6,6.8,30.12,North,4,4.0,5.4,44,0.00,,,0.00,VWS V14.01,2013-01-01 17:24:00,
2013-01-01 12:25:00,24.6,5.5,30.12,NNE,31,5.6,5.6,43,0.00,,,0.00,VWS V14.01,2013-01-01 17:25:00,
2013-01-01 12:27:00,25.9,7.1,30.12,North,1,5.6,6.1,44,0.00,,,0.00,VWS V14.01,2013-01-01 17:27:00,
2013-01-01 12:30:00,24.3,5.8,30.12,NE,34,7.3,7.3,45,0.00,,,0.00,VWS V14.01,2013-01-01 17:30:00,
2013-01-01 12:31:00,25.3,6.7,30.12,NE,41,4.4,7.3,44,0.00,,,0.00,VWS V14.01,2013-01-01 17:31:00,
2013-01-01 12:32:00,25.3,6.7,30.11,NE,35,4.5,4.5,44,0.00,,,0.00,VWS V14.01,2013-01-01 17:32:00,
2013-01-01 12:35:00,25.8,7.7,30.11,North,351,3.4,5.1,46,0.00,,,0.00,VWS V14.01,2013-01-01 17:35:00,
2013-01-01 12:37:00,25.3,6.6,30.12,NE,37,5.2,5.2,44,0.00,,,0.00,VWS V14.01,2013-01-01 17:37:00,
2013-01-01 12:39:00,24.6,6.3,30.16,NNE,30,5.9,5.9,45,0.00,,,0.00,VWS V14.01,2013-01-01 17:39:00,
2013-01-01 12:41:00,27.4,9.3,30.11,North,1,4.9,4.9,46,0.00,,,0.00,VWS V14.01,2013-01-01 17:41:00,
2013-01-01 12:42:00,27.7,8.6,30.11,North,0,2.7,4.9,44,0.00,,,0.00,VWS V14.01,2013-01-01 17:42:00,
2013-01-01 12:44:00,24.8,4.6,30.17,NE,53,4.2,4.2,41,0.00,,,0.00,VWS V14.01,2013-01-01 17:44:00,
2013-01-01 12:45:00,24.1,4.4,30.14,NE,52,4.0,4.2,42,0.00,,,0.00,VWS V14.01,2013-01-01 17:45:00,
2013-01-01 12:46:00,26.1,7.7,30.13,WNW,295,1.0,5.4,45,0.00,,,0.00,VWS V14.01,2013-01-01 17:46:00,
2013-01-01 12:47:00,25.7,7.0,30.13,NNW,340,2.7,2.7,44,0.00,,,0.00,VWS V14.01,2013-01-01 17:47:00,
2013-01-01 12:49:00,29.2,10.4,30.14,North,360,0.0,3.4,45,0.00,,,0.00,VWS V14.01,2013-01-01 17:49:00,
2013-01-01 12:50:00,29.2,10.4,30.14,North,360,0.0,3.4,45,0.00,,,0.00,VWS V14.01,2013-01-01 17:50:00,
2013-01-01 12:53:00,26.7,5.1,30.14,West,277,0.0,0.0,39,0.00,,,0.00,VWS V14.01,2013-01-01 17:53:00,
2013-01-01 12:54:00,26.9,4.8,30.14,West,277,0.0,0.0,38,0.00,,,0.00,VWS V14.01,2013-01-01 17:54:00,
2013-01-01 12:55:00,26.9,4.6,30.13,NNW,328,4.4,4.4,38,0.00,,,0.00,VWS V14.01,2013-01-01 17:55:00,
2013-01-01 12:57:00,26.7,4.8,30.11,North,2,4.4,4.4,38,0.00,,,0.00,VWS V14.01,2013-01-01 17:57:00,
2013-01-01 12:59:00,25.0,4.0,30.11,West,275,1.1,1.1,40,0.00,,,0.00,VWS V14.01,2013-01-01 17:59:00,
2013-01-01 13:00:00,26.3,4.8,30.10,West,266,0.0,0.0,39,0.00,,,0.00,VWS V14.01,2013-01-01 18:00:00,
2013-01-01 13:02:00,28.4,5.5,30.12,WSW,243,1.8,2.5,37,0.00,,,0.00,VWS V14.01,2013-01-01 18:02:00,
2013-01-01 13:04:00,25.2,2.8,30.11,WNW,282,2.5,2.5,37,0.00,,,0.00,VWS V14.01,2013-01-01 18:04:00,
2013-01-01 13:05:00,28.3,6.4,30.11,SW,224,1.1,1.1,39,0.00,,,0.00,VWS V14.01,2013-01-01 18:05:00,
2013-01-01 13:07:00,28.8,6.1,30.10,SW,224,0.0,0.0,37,0.00,,,0.00,VWS V14.01,2013-01-01 18:07:00,
2013-01-01 13:09:00,30.9,7.0,30.11,SW,224,0.0,0.0,36,0.00,,,0.00,VWS V14.01,2013-01-01 18:09:00,
2013-01-01 13:10:00,33.5,8.3,30.11,SW,224,0.0,0.0,34,0.00,,,0.00,VWS V14.01,2013-01-01 18:10:00,
2013-01-01 13:12:00,28.6,-2.1,30.11,SW,232,0.0,0.0,26,0.00,,,0.00,VWS V14.01,2013-01-01 18:12:00,
2013-01-01 13:15:00,26.5,4.1,30.09,NW,319,2.8,5.4,37,0.00,,,0.00,VWS V14.01,2013-01-01 18:15:00,
2013-01-01 13:17:00,25.9,3.1,30.10,NNE,27,3.5,4.0,37,0.00,,,0.00,VWS V14.01,2013-01-01 18:17:00,
2013-01-01 13:19:00,26.4,4.8,30.08,West,277,2.8,5.1,39,0.00,,,0.00,VWS V14.01,2013-01-01 18:19:00,
2013-01-01 13:21:00,26.1,5.1,30.09,NNW,328,6.3,6.8,40,0.00,,,0.00,VWS V14.01,2013-01-01 18:21:00,
2013-01-01 13:22:00,25.5,4.6,30.10,WNW,290,3.9,4.7,40,0.00,,,0.00,VWS V14.01,2013-01-01 18:22:00,
2013-01-01 13:25:00,25.5,5.3,30.10,NW,312,5.6,6.9,42,0.00,,,0.00,VWS V14.01,2013-01-01 18:25:00,
2013-01-01 13:26:00,25.1,5.1,30.09,WNW,303,6.1,6.1,42,0.00,,,0.00,VWS V14.01,2013-01-01 18:26:00,
2013-01-01 13:27:00,25.1,5.1,30.09,WNW,303,6.1,6.1,42,0.00,,,0.00,VWS V14.01,2013-01-01 18:27:00,
2013-01-01 13:28:00,25.9,6.1,30.10,West,280,2.8,6.1,42,0.00,,,0.00,VWS V14.01,2013-01-01 18:28:00,
2013-01-01 13:31:00,25.9,5.7,30.09,WNW,290,5.1,5.1,42,0.00,,,0.00,VWS V14.01,2013-01-01 18:31:00,
2013-01-01 13:32:00,27.2,7.3,30.10,NW,324,4.4,5.1,42,0.00,,,0.00,VWS V14.01,2013-01-01 18:32:00,
2013-01-01 13:33:00,27.1,6.6,30.10,North,6,3.2,4.2,41,0.00,,,0.00,VWS V14.01,2013-01-01 18:33:00,
2013-01-01 13:36:00,26.0,5.1,30.08,NW,320,6.9,7.1,40,0.00,,,0.00,VWS V14.01,2013-01-01 18:36:00,
2013-01-01 13:37:00,26.9,7.1,30.09,North,7,5.4,6.9,42,0.00,,,0.00,VWS V14.01,2013-01-01 18:37:00,
2013-01-01 13:39:00,27.5,7.3,30.08,NNE,14,5.1,5.1,42,0.00,,,0.00,VWS V14.01,2013-01-01 18:39:00,
2013-01-01 13:43:00,27.2,5.8,30.09,NNW,342,5.2,5.2,40,0.00,,,0.00,VWS V14.01,2013-01-01 18:43:00,
2013-01-01 13:44:00,27.2,6.3,30.08,NNW,346,7.8,7.8,40,0.00,,,0.00,VWS V14.01,2013-01-01 18:44:00,
2013-01-01 13:49:00,27.9,7.6,30.08,NNW,334,5.6,5.6,42,0.00,,,0.00,VWS V14.01,2013-01-01 18:49:00,
2013-01-01 13:50:00,27.3,7.0,30.08,NNW,346,5.7,5.7,42,0.00,,,0.00,VWS V14.01,2013-01-01 18:50:00,
2013-01-01 13:51:00,28.5,7.5,30.07,NNW,344,3.4,4.0,40,0.00,,,0.00,VWS V14.01,2013-01-01 18:51:00,
2013-01-01 13:55:00,27.2,5.9,30.09,NNW,346,5.7,5.7,40,0.00,,,0.00,VWS V14.01,2013-01-01 18:55:00,
2013-01-01 13:56:00,27.7,5.8,30.07,NNW,338,6.8,6.8,39,0.00,,,0.00,VWS V14.01,2013-01-01 18:56:00,
2013-01-01 13:58:00,26.4,5.5,30.08,North,9,5.6,6.3,40,0.00,,,0.00,VWS V14.01,2013-01-01 18:58:00,
2013-01-01 14:01:00,27.6,7.1,30.08,North,352,5.2,5.9,41,0.00,,,0.00,VWS V14.01,2013-01-01 19:01:00,
2013-01-01 14:02:00,26.9,6.1,30.08,NNW,328,6.8,6.8,41,0.00,,,0.00,VWS V14.01,2013-01-01 19:02:00,
2013-01-01 14:03:00,27.1,6.7,30.09,NNW,336,5.9,5.9,41,0.00,,,0.00,VWS V14.01,2013-01-01 19:03:00,
2013-01-01 14:04:00,26.4,5.3,30.08,NNE,29,5.2,5.2,40,0.00,,,0.00,VWS V14.01,2013-01-01 19:04:00,
2013-01-01 14:07:00,26.7,5.2,30.09,NNW,345,5.9,5.9,39,0.00,,,0.00,VWS V14.01,2013-01-01 19:07:00,
2013-01-01 14:09:00,27.6,6.6,30.08,NNW,329,5.2,6.6,40,0.00,,,0.00,VWS V14.01,2013-01-01 19:09:00,
2013-01-01 14:10:00,28.1,6.1,30.07,North,351,4.4,6.6,38,0.00,,,0.00,VWS V14.01,2013-01-01 19:10:00,
2013-01-01 14:11:00,27.0,5.1,30.07,NW,306,4.5,4.5,39,0.00,,,0.00,VWS V14.01,2013-01-01 19:11:00,
2013-01-01 14:12:00,26.4,4.4,30.08,North,349,8.8,8.8,38,0.00,,,0.00,VWS V14.01,2013-01-01 19:12:00,
2013-01-01 14:15:00,26.3,4.4,30.09,NNE,32,3.4,4.5,39,0.00,,,0.00,VWS V14.01,2013-01-01 19:15:00,
2013-01-01 14:17:00,26.2,4.5,30.08,NNE,30,4.7,4.7,39,0.00,,,0.00,VWS V14.01,2013-01-01 19:17:00,
2013-01-01 14:19:00,27.0,5.2,30.09,NNW,348,4.0,6.3,39,0.00,,,0.00,VWS V14.01,2013-01-01 19:19:00,
2013-01-01 14:20:00,26.0,4.3,30.09,NW,326,6.4,6.4,39,0.00,,,0.00,VWS V14.01,2013-01-01 19:20:00,
2013-01-01 14:21:00,26.0,4.6,30.08,North,1,7.6,7.6,39,0.00,,,0.00,VWS V14.01,2013-01-01 19:21:00,
2013-01-01 14:23:00,27.6,6.8,30.09,North,360,3.7,4.4,41,0.00,,,0.00,VWS V14.01,2013-01-01 19:23:00,
2013-01-01 14:24:00,26.9,6.1,30.09,NNE,30,3.7,3.7,41,0.00,,,0.00,VWS V14.01,2013-01-01 19:24:00,
2013-01-01 14:26:00,26.9,6.0,30.08,NNW,336,8.5,8.5,40,0.00,,,0.00,VWS V14.01,2013-01-01 19:26:00,
2013-01-01 14:28:00,25.7,4.1,30.08,NNW,335,5.1,5.1,39,0.00,,,0.00,VWS V14.01,2013-01-01 19:28:00,
2013-01-01 14:29:00,25.8,4.4,30.09,NNW,333,6.9,6.9,39,0.00,,,0.00,VWS V14.01,2013-01-01 19:29:00,
2013-01-01 14:30:00,26.5,5.5,30.10,NNW,336,5.4,7.5,40,0.00,,,0.00,VWS V14.01,2013-01-01 19:30:00,
2013-01-01 14:31:00,25.7,5.3,30.10,NW,314,4.5,5.4,41,0.00,,,0.00,VWS V14.01,2013-01-01 19:31:00,
2013-01-01 14:35:00,25.5,4.7,30.09,WNW,297,5.2,6.3,40,0.00,,,0.00,VWS V14.01,2013-01-01 19:35:00,
2013-01-01 14:36:00,27.2,7.3,30.09,North,9,7.3,7.3,42,0.00,,,0.00,VWS V14.01,2013-01-01 19:36:00,
2013-01-01 14:40:00,24.7,4.2,30.10,WNW,294,5.7,5.7,41,0.00,,,0.00,VWS V14.01,2013-01-01 19:40:00,
2013-01-01 14:41:00,24.8,4.0,30.09,WNW,294,5.6,6.6,40,0.00,,,0.00,VWS V14.01,2013-01-01 19:41:00,
2013-01-01 14:42:00,25.1,4.8,30.09,NW,304,4.7,5.6,41,0.00,,,0.00,VWS V14.01,2013-01-01 19:42:00,
2013-01-01 14:45:00,24.6,5.8,30.09,WNW,298,9.2,9.2,44,0.00,,,0.00,VWS V14.01,2013-01-01 19:45:00,
2013-01-01 14:47:00,25.0,6.2,30.09,NW,312,8.8,8.8,44,0.00,,,0.00,VWS V14.01,2013-01-01 19:47:00,
2013-01-01 14:49:00,25.2,6.2,30.10,NW,308,8.3,8.3,44,0.00,,,0.00,VWS V14.01,2013-01-01 19:49:00,
2013-01-01 14:51:00,25.8,6.6,30.10,NW,311,9.7,9.7,43,0.00,,,0.00,VWS V14.01,2013-01-01 19:51:00,
2013-01-01 14:52:00,25.0,6.3,30.09,NW,312,10.5,11.4,44,0.00,,,0.00,VWS V14.01,2013-01-01 19:52:00,
2013-01-01 14:53:00,25.0,6.2,30.09,NW,305,9.5,11.4,44,0.00,,,0.00,VWS V14.01,2013-01-01 19:53:00,
2013-01-01 14:55:00,25.1,6.9,30.11,NW,324,10.0,10.0,45,0.00,,,0.00,VWS V14.01,2013-01-01 19:55:00,
2013-01-01 14:57:00,25.2,7.4,30.10,NW,319,7.1,8.0,46,0.00,,,0.00,VWS V14.01,2013-01-01 19:57:00,
2013-01-01 14:58:00,25.5,7.1,30.11,NW,317,7.6,7.6,45,0.00,,,0.00,VWS V14.01,2013-01-01 19:58:00,
2013-01-01 14:59:00,25.2,6.8,30.11,NW,310,6.3,7.6,45,0.00,,,0.00,VWS V14.01,2013-01-01 19:59:00,
2013-01-01 15:00:00,25.5,7.0,30.10,WNW,284,4.4,6.8,45,0.00,,,0.00,VWS V14.01,2013-01-01 20:00:00,
2013-01-01 15:03:00,26.0,7.5,30.10,NNW,330,6.3,6.9,45,0.00,,,0.00,VWS V14.01,2013-01-01 20:03:00,
2013-01-01 15:04:00,25.1,6.2,30.10,WNW,299,7.3,7.3,44,0.00,,,0.00,VWS V14.01,2013-01-01 20:04:00,
2013-01-01 15:05:00,25.1,6.7,30.10,NW,304,7.3,8.8,45,0.00,,,0.00,VWS V14.01,2013-01-01 20:05:00,
2013-01-01 15:07:00,25.5,7.1,30.09,NW,321,7.3,9.0,45,0.00,,,0.00,VWS V14.01,2013-01-01 20:07:00,
2013-01-01 15:09:00,26.6,8.0,30.10,NW,312,4.7,8.5,45,0.00,,,0.00,VWS V14.01,2013-01-01 20:09:00,
2013-01-01 15:10:00,25.4,6.4,30.10,NW,310,9.0,9.0,44,0.00,,,0.00,VWS V14.01,2013-01-01 20:10:00,
2013-01-01 15:12:00,25.2,6.6,30.09,WNW,303,8.3,9.3,44,0.00,,,0.00,VWS V14.01,2013-01-01 20:12:00,
2013-01-01 15:13:00,25.7,7.7,30.10,NW,308,5.9,9.7,46,0.00,,,0.00,VWS V14.01,2013-01-01 20:13:00,
2013-01-01 15:16:00,25.4,7.2,30.10,NW,310,11.2,11.2,45,0.00,,,0.00,VWS V14.01,2013-01-01 20:16:00,
2013-01-01 15:18:00,25.6,7.3,30.10,NW,319,8.8,12.4,45,0.00,,,0.00,VWS V14.01,2013-01-01 20:18:00,
2013-01-01 15:21:00,26.0,7.2,30.10,NNW,340,6.6,11.7,44,0.00,,,0.00,VWS V14.01,2013-01-01 20:21:00,
2013-01-01 15:23:00,25.0,6.3,30.10,NW,317,8.7,10.0,44,0.00,,,0.00,VWS V14.01,2013-01-01 20:23:00,
2013-01-01 15:24:00,25.7,6.8,30.11,NNW,333,11.9,11.9,44,0.00,,,0.00,VWS V14.01,2013-01-01 20:24:00,
2013-01-01 15:26:00,25.8,7.5,30.11,NNW,342,7.8,10.5,45,0.00,,,0.00,VWS V14.01,2013-01-01 20:26:00,
2013-01-01 15:27:00,26.0,7.2,30.10,North,350,7.8,7.8,44,0.00,,,0.00,VWS V14.01,2013-01-01 20:27:00,
2013-01-01 15:29:00,25.5,6.5,30.10,NNW,332,10.2,10.2,44,0.00,,,0.00,VWS V14.01,2013-01-01 20:29:00,
2013-01-01 15:31:00,24.7,6.5,30.10,NW,315,8.7,9.5,45,0.00,,,0.00,VWS V14.01,2013-01-01 20:31:00,
2013-01-01 15:32:00,25.2,7.4,30.11,NNW,327,8.3,9.5,46,0.00,,,0.00,VWS V14.01,2013-01-01 20:32:00,
2013-01-01 15:35:00,24.5,6.6,30.11,NW,317,6.4,8.1,46,0.00,,,0.00,VWS V14.01,2013-01-01 20:35:00,
2013-01-01 15:37:00,24.4,7.2,30.11,WNW,292,9.2,9.2,47,0.00,,,0.00,VWS V14.01,2013-01-01 20:37:00,
2013-01-01 15:38:00,24.0,7.0,30.12,NW,309,8.3,8.3,48,0.00,,,0.00,VWS V14.01,2013-01-01 20:38:00,
2013-01-01 15:40:00,24.8,8.1,30.11,NW,316,9.5,9.5,48,0.00,,,0.00,VWS V14.01,2013-01-01 20:40:00,
2013-01-01 15:42:00,24.4,7.1,30.11,NW,317,6.6,7.5,47,0.00,,,0.00,VWS V14.01,2013-01-01 20:42:00,
2013-01-01 15:43:00,24.3,7.6,30.11,NNW,331,8.3,8.5,48,0.00,,,0.00,VWS V14.01,2013-01-01 20:43:00,
2013-01-01 15:47:00,24.2,7.7,30.12,NW,318,9.0,10.9,49,0.00,,,0.00,VWS V14.01,2013-01-01 20:47:00,
2013-01-01 15:48:00,24.4,7.9,30.12,NNW,338,8.8,9.3,49,0.00,,,0.00,VWS V14.01,2013-01-01 20:48:00,
2013-01-01 15:52:00,24.3,8.5,30.11,NW,308,8.8,9.7,50,0.00,,,0.00,VWS V14.01,2013-01-01 20:52:00,
2013-01-01 15:53:00,24.2,8.1,30.12,WNW,303,6.8,8.8,50,0.00,,,0.00,VWS V14.01,2013-01-01 20:53:00,
2013-01-01 15:54:00,24.0,8.1,30.12,NW,309,6.9,6.9,50,0.00,,,0.00,VWS V14.01,2013-01-01 20:54:00,
2013-01-01 15:55:00,23.6,7.8,30.12,NW,316,6.1,6.9,50,0.00,,,0.00,VWS V14.01,2013-01-01 20:55:00,
2013-01-01 15:58:00,24.4,8.3,30.12,NW,314,8.8,9.3,50,0.00,,,0.00,VWS V14.01,2013-01-01 20:58:00,
2013-01-01 15:59:00,24.0,7.9,30.12,NW,313,7.3,8.1,50,0.00,,,0.00,VWS V14.01,2013-01-01 20:59:00,
2013-01-01 16:01:00,24.4,8.1,30.12,NW,322,7.8,9.7,49,0.00,,,0.00,VWS V14.01,2013-01-01 21:01:00,
2013-01-01 16:03:00,23.9,8.0,30.12,WNW,298,6.8,8.0,50,0.00,,,0.00,VWS V14.01,2013-01-01 21:03:00,
2013-01-01 16:05:00,24.3,8.6,30.12,NNW,328,10.7,10.7,51,0.00,,,0.00,VWS V14.01,2013-01-01 21:05:00,
2013-01-01 16:06:00,23.8,7.6,30.12,WNW,292,8.5,8.5,49,0.00,,,0.00,VWS V14.01,2013-01-01 21:06:00,
2013-01-01 16:09:00,24.5,7.6,30.12,NW,326,9.9,11.2,48,0.00,,,0.00,VWS V14.01,2013-01-01 21:09:00,
2013-01-01 16:10:00,24.3,7.7,30.12,NW,309,9.2,9.2,49,0.00,,,0.00,VWS V14.01,2013-01-01 21:10:00,
2013-01-01 16:11:00,23.9,7.3,30.17,NW,310,11.4,11.4,48,0.00,,,0.00,VWS V14.01,2013-01-01 21:11:00,
2013-01-01 16:12:00,23.8,7.6,30.13,NW,325,9.9,11.4,49,0.00,,,0.00,VWS V14.01,2013-01-01 21:12:00,
2013-01-01 16:14:00,24.2,8.1,30.12,NNW,335,7.6,9.9,50,0.00,,,0.00,VWS V14.01,2013-01-01 21:14:00,
2013-01-01 16:15:00,24.2,7.8,30.12,North,351,7.6,8.5,49,0.00,,,0.00,VWS V14.01,2013-01-01 21:15:00,
2013-01-01 16:16:00,24.1,7.7,30.12,NNW,328,9.5,9.5,49,0.00,,,0.00,VWS V14.01,2013-01-01 21:16:00,
2013-01-01 16:17:00,23.9,7.4,30.12,NW,316,10.9,10.9,49,0.00,,,0.00,VWS V14.01,2013-01-01 21:17:00,
2013-01-01 16:19:00,23.8,7.4,30.12,NNW,344,9.3,10.4,49,0.00,,,0.00,VWS V14.01,2013-01-01 21:19:00,
2013-01-01 16:21:00,24.0,6.5,30.12,North,350,6.8,9.2,47,0.00,,,0.00,VWS V14.01,2013-01-01 21:21:00,
2013-01-01 16:22:00,24.0,7.6,30.12,NW,325,11.7,11.7,49,0.00,,,0.00,VWS V14.01,2013-01-01 21:22:00,
2013-01-01 16:24:00,23.5,7.3,30.13,NW,316,10.0,10.4,49,0.00,,,0.00,VWS V14.01,2013-01-01 21:24:00,
2013-01-01 16:25:00,23.6,7.6,30.13,NW,318,9.3,10.0,50,0.00,,,0.00,VWS V14.01,2013-01-01 21:25:00,
2013-01-01 16:27:00,23.8,7.7,30.12,NNW,331,11.9,12.4,49,0.00,,,0.00,VWS V14.01,2013-01-01 21:27:00,
2013-01-01 16:29:00,23.7,7.8,30.12,NNW,345,8.0,11.1,50,0.00,,,0.00,VWS V14.01,2013-01-01 21:29:00,
2013-01-01 16:30:00,23.5,4.3,30.12,NW,309,10.5,10.5,43,0.00,,,0.00,VWS V14.01,2013-01-01 21:30:00,
2013-01-01 16:31:00,24.0,7.8,30.13,NW,323,13.3,13.3,50,0.00,,,0.00,VWS V14.01,2013-01-01 21:31:00,
2013-01-01 16:32:00,23.7,7.7,30.13,NNW,339,8.3,13.3,50,0.00,,,0.00,VWS V14.01,2013-01-01 21:32:00,
2013-01-01 16:36:00,23.3,7.4,30.12,NNW,333,7.1,10.0,50,0.00,,,0.00,VWS V14.01,2013-01-01 21:36:00,
2013-01-01 16:37:00,23.7,7.7,30.12,NNW,340,10.4,10.4,50,0.00,,,0.00,VWS V14.01,2013-01-01 21:37:00,
2013-01-01 16:42:00,23.6,7.6,30.12,NW,322,6.8,6.8,50,0.00,,,0.00,VWS V14.01,2013-01-01 21:42:00,
2013-01-01 16:43:00,23.6,7.7,30.12,NNW,327,7.1,7.1,50,0.00,,,0.00,VWS V14.01,2013-01-01 21:43:00,
2013-01-01 16:44:00,23.5,7.8,30.12,NW,324,8.1,8.1,50,0.00,,,0.00,VWS V14.01,2013-01-01 21:44:00,
2013-01-01 16:45:00,22.8,7.2,30.11,NW,318,9.2,9.2,51,0.00,,,0.00,VWS V14.01,2013-01-01 21:45:00,
2013-01-01 16:48:00,23.0,7.9,30.13,NNW,332,5.2,8.3,52,0.00,,,0.00,VWS V14.01,2013-01-01 21:48:00,
2013-01-01 16:49:00,22.5,7.5,30.13,NW,316,5.6,5.6,52,0.00,,,0.00,VWS V14.01,2013-01-01 21:49:00,
2013-01-01 16:50:00,23.2,8.1,30.13,NNW,328,8.0,8.0,52,0.00,,,0.00,VWS V14.01,2013-01-01 21:50:00,
2013-01-01 16:53:00,22.6,5.2,30.13,NW,309,7.5,7.5,47,0.00,,,0.00,VWS V14.01,2013-01-01 21:53:00,
2013-01-01 16:54:00,21.8,7.0,30.13,NW,304,5.7,7.5,52,0.00,,,0.00,VWS V14.01,2013-01-01 21:54:00,
2013-01-01 16:56:00,22.4,7.9,30.13,WNW,302,7.6,7.6,53,0.00,,,0.00,VWS V14.01,2013-01-01 21:56:00,
2013-01-01 16:58:00,21.8,7.4,30.13,WNW,295,5.4,6.4,53,0.00,,,0.00,VWS V14.01,2013-01-01 21:58:00,
2013-01-01 16:59:00,21.4,4.1,30.13,NW,305,4.5,6.1,47,0.00,,,0.00,VWS V14.01,2013-01-01 21:59:00,
2013-01-01 17:00:00,22.3,8.1,30.13,WNW,285,8.1,8.1,54,0.00,,,0.00,VWS V14.01,2013-01-01 22:00:00,
2013-01-01 17:01:00,21.7,7.6,30.13,WNW,293,5.1,5.4,54,0.00,,,0.00,VWS V14.01,2013-01-01 22:01:00,
2013-01-01 17:03:00,22.5,8.5,30.13,WNW,290,7.5,7.5,54,0.00,,,0.00,VWS V14.01,2013-01-01 22:03:00,
2013-01-01 17:04:00,22.0,7.8,30.13,WNW,303,7.6,7.6,54,0.00,,,0.00,VWS V14.01,2013-01-01 22:04:00,
2013-01-01 17:05:00,21.2,7.0,30.14,NW,313,5.7,7.6,54,0.00,,,0.00,VWS V14.01,2013-01-01 22:05:00,
2013-01-01 17:08:00,21.8,7.9,30.13,WNW,297,5.4,6.1,54,0.00,,,0.00,VWS V14.01,2013-01-01 22:08:00,
2013-01-01 17:10:00,21.5,7.7,30.19,WNW,294,6.3,6.4,55,0.00,,,0.00,VWS V14.01,2013-01-01 22:10:00,
2013-01-01 17:11:00,21.7,8.0,30.14,WNW,296,5.4,6.4,55,0.00,,,0.00,VWS V14.01,2013-01-01 22:11:00,
2013-01-01 17:13:00,21.4,7.7,30.13,WNW,289,6.3,6.3,55,0.00,,,0.00,VWS V14.01,2013-01-01 22:13:00,
2013-01-01 17:16:00,21.4,7.9,30.14,WNW,288,6.4,6.4,55,0.00,,,0.00,VWS V14.01,2013-01-01 22:16:00,
2013-01-01 17:17:00,21.4,8.0,30.14,WNW,287,5.9,5.9,56,0.00,,,0.00,VWS V14.01,2013-01-01 22:17:00,
2013-01-01 17:19:00,21.9,8.7,30.14,WNW,282,6.4,6.4,56,0.00,,,0.00,VWS V14.01,2013-01-01 22:19:00,
2013-01-01 17:20:00,21.5,8.1,30.19,WNW,293,5.7,6.4,56,0.00,,,0.00,VWS V14.01,2013-01-01 22:20:00,
2013-01-01 17:21:00,21.1,7.7,30.14,WNW,290,5.1,5.7,56,0.00,,,0.00,VWS V14.01,2013-01-01 22:21:00,
2013-01-01 17:22:00,21.4,8.1,30.14,WNW,291,5.6,5.6,56,0.00,,,0.00,VWS V14.01,2013-01-01 22:22:00,
2013-01-01 17:25:00,21.7,8.4,30.14,WNW,283,4.7,5.4,56,0.00,,,0.00,VWS V14.01,2013-01-01 22:25:00,
2013-01-01 17:27:00,20.6,7.2,30.13,WNW,289,3.7,3.7,56,0.00,,,0.00,VWS V14.01,2013-01-01 22:27:00,
2013-01-01 17:28:00,21.3,8.2,30.13,West,281,3.7,4.0,56,0.00,,,0.00,VWS V14.01,2013-01-01 22:28:00,
2013-01-01 17:30:00,17.5,4.4,30.13,WNW,282,2.5,3.7,56,0.00,,,0.00,VWS V14.01,2013-01-01 22:30:00,
2013-01-01 17:32:00,17.3,5.1,30.13,West,266,0.0,0.0,58,0.00,,,0.00,VWS V14.01,2013-01-01 22:32:00,
2013-01-01 17:33:00,19.7,7.9,30.13,West,266,2.3,2.3,60,0.00,,,0.00,VWS V14.01,2013-01-01 22:33:00,
2013-01-01 17:37:00,18.9,7.6,30.14,WNW,291,2.0,2.0,61,0.00,,,0.00,VWS V14.01,2013-01-01 22:37:00,
2013-01-01 17:38:00,19.2,8.0,30.19,NW,316,1.1,2.0,61,0.00,,,0.00,VWS V14.01,2013-01-01 22:38:00,
2013-01-01 17:39:00,19.4,8.3,30.15,NW,316,1.8,1.8,62,0.00,,,0.00,VWS V14.01,2013-01-01 22:39:00,
2013-01-01 17:44:00,20.6,9.6,30.14,NW,316,0.0,0.0,62,0.00,,,0.00,VWS V14.01,2013-01-01 22:44:00,
2013-01-01 17:45:00,21.1,10.2,30.14,NW,316,1.3,1.5,62,0.00,,,0.00,VWS V14.01,2013-01-01 22:45:00,
2013-01-01 17:47:00,21.2,10.2,30.14,NW,313,1.8,2.2,62,0.00,,,0.00,VWS V14.01,2013-01-01 22:47:00,
2013-01-01 17:49:00,20.5,9.4,30.13,NW,313,0.0,0.0,62,0.00,,,0.00,VWS V14.01,2013-01-01 22:49:00,
2013-01-01 17:51:00,20.1,9.5,30.13,NW,313,0.0,0.0,63,0.00,,,0.00,VWS V14.01,2013-01-01 22:51:00,
2013-01-01 17:53:00,19.8,9.4,30.13,NW,313,0.0,0.0,63,0.00,,,0.00,VWS V14.01,2013-01-01 22:53:00,
2013-01-01 17:54:00,19.7,9.6,30.14,NW,313,0.0,0.0,64,0.00,,,0.00,VWS V14.01,2013-01-01 22:54:00,
2013-01-01 17:55:00,19.5,9.5,30.14,NW,313,0.0,0.0,65,0.00,,,0.00,VWS V14.01,2013-01-01 22:55:00,
2013-01-01 17:57:00,19.2,7.9,30.14,WNW,286,0.0,0.0,61,0.00,,,0.00,VWS V14.01,2013-01-01 22:57:00,
2013-01-01 17:59:00,19.9,10.3,30.14,WNW,286,0.0,0.0,66,0.00,,,0.00,VWS V14.01,2013-01-01 22:59:00,
2013-01-01 18:00:00,19.6,10.0,30.14,WNW,286,0.0,0.0,66,0.00,,,0.00,VWS V14.01,2013-01-01 23:00:00,
2013-01-01 18:03:00,18.1,7.0,30.14,WNW,286,0.0,0.0,61,0.00,,,0.00,VWS V14.01,2013-01-01 23:03:00,
2013-01-01 18:04:00,18.3,9.1,30.14,WNW,286,0.0,0.0,66,0.00,,,0.00,VWS V14.01,2013-01-01 23:04:00,
2013-01-01 18:05:00,18.5,9.3,30.14,WNW,286,0.0,0.0,67,0.00,,,0.00,VWS V14.01,2013-01-01 23:05:00,
2013-01-01 18:06:00,18.5,9.5,30.15,WNW,286,0.0,0.0,67,0.00,,,0.00,VWS V14.01,2013-01-01 23:06:00,
2013-01-01 18:10:00,18.4,9.8,30.13,WNW,286,0.0,0.0,69,0.00,,,0.00,VWS V14.01,2013-01-01 23:10:00,
2013-01-01 18:11:00,18.2,9.8,30.13,WNW,286,0.0,0.0,69,0.00,,,0.00,VWS V14.01,2013-01-01 23:11:00,
2013-01-01 18:15:00,18.9,10.4,30.14,WNW,286,0.0,0.0,69,0.00,,,0.00,VWS V14.01,2013-01-01 23:15:00,
2013-01-01 18:16:00,19.0,10.4,30.14,WNW,286,1.0,1.0,69,0.00,,,0.00,VWS V14.01,2013-01-01 23:16:00,
2013-01-01 18:17:00,19.0,10.4,30.14,WNW,286,1.0,1.0,69,0.00,,,0.00,VWS V14.01,2013-01-01 23:17:00,
2013-01-01 18:20:00,19.1,10.2,30.14,West,280,2.3,2.3,68,0.00,,,0.00,VWS V14.01,2013-01-01 23:20:00,
2013-01-01 18:22:00,19.4,10.6,30.14,West,280,2.0,2.3,68,0.00,,,0.00,VWS V14.01,2013-01-01 23:22:00,
2013-01-01 18:23:00,19.6,10.4,30.14,West,280,2.0,2.3,67,0.00,,,0.00,VWS V14.01,2013-01-01 23:23:00,
2013-01-01 18:26:00,19.6,10.1,30.14,West,280,2.0,2.3,66,0.00,,,0.00,VWS V14.01,2013-01-01 23:26:00,
2013-01-01 18:28:00,19.1,9.3,30.15,West,280,0.0,2.3,65,0.00,,,0.00,VWS V14.01,2013-01-01 23:28:00,
2013-01-01 18:29:00,18.8,9.0,30.15,West,280,0.0,2.3,65,0.00,,,0.00,VWS V14.01,2013-01-01 23:29:00,
2013-01-01 18:30:00,18.2,8.5,30.15,West,280,0.0,2.3,65,0.00,,,0.00,VWS V14.01,2013-01-01 23:30:00,
2013-01-01 18:32:00,18.0,8.5,30.14,West,280,0.0,2.3,66,0.00,,,0.00,VWS V14.01,2013-01-01 23:32:00,
2013-01-01 18:34:00,17.6,8.5,30.15,West,280,0.0,2.3,67,0.00,,,0.00,VWS V14.01,2013-01-01 23:34:00,
2013-01-01 18:35:00,18.0,8.9,30.15,West,280,0.0,2.3,67,0.00,,,0.00,VWS V14.01,2013-01-01 23:35:00,
2013-01-01 18:38:00,18.7,8.7,30.15,West,280,1.1,2.3,64,0.00,,,0.00,VWS V14.01,2013-01-01 23:38:00,
2013-01-01 18:40:00,18.6,9.6,30.14,West,280,0.0,2.3,67,0.00,,,0.00,VWS V14.01,2013-01-01 23:40:00,
2013-01-01 18:41:00,18.3,9.1,30.14,West,280,0.0,2.3,67,0.00,,,0.00,VWS V14.01,2013-01-01 23:41:00,
2013-01-01 18:42:00,18.3,9.2,30.14,NW,306,1.0,2.3,67,0.00,,,0.00,VWS V14.01,2013-01-01 23:42:00,
2013-01-01 18:44:00,18.8,9.8,30.14,NW,306,0.0,2.3,68,0.00,,,0.00,VWS V14.01,2013-01-01 23:44:00,
2013-01-01 18:45:00,18.9,9.9,30.14,NW,306,0.0,2.3,67,0.00,,,0.00,VWS V14.01,2013-01-01 23:45:00,
2013-01-01 18:47:00,19.4,10.3,30.15,NW,306,0.0,2.3,67,0.00,,,0.00,VWS V14.01,2013-01-01 23:47:00,
2013-01-01 18:49:00,19.9,10.6,30.15,NW,306,1.8,2.3,67,0.00,,,0.00,VWS V14.01,2013-01-01 23:49:00,
2013-01-01 18:51:00,20.0,10.3,30.14,NW,306,0.0,2.3,65,0.00,,,0.00,VWS V14.01,2013-01-01 23:51:00,
2013-01-01 18:52:00,19.7,9.9,30.15,NW,306,2.0,2.3,65,0.00,,,0.00,VWS V14.01,2013-01-01 23:52:00,
2013-01-01 18:54:00,19.9,10.0,30.15,NW,306,2.5,2.5,65,0.00,,,0.00,VWS V14.01,2013-01-01 23:54:00,
2013-01-01 18:55:00,19.6,8.4,30.15,NW,306,2.2,2.7,61,0.00,,,0.00,VWS V14.01,2013-01-01 23:55:00,
2013-01-01 18:57:00,19.2,9.3,30.15,WNW,296,2.2,2.7,65,0.00,,,0.00,VWS V14.01,2013-01-01 23:57:00,
2013-01-01 18:59:00,19.0,9.3,30.15,WNW,295,0.0,2.7,65,0.00,,,0.00,VWS V14.01,2013-01-01 23:59:00,
2013-01-01 19:00:00,18.9,9.3,30.14,WNW,296,0.0,2.7,65,0.00,,,0.00,VWS V14.01,2013-01-02 00:00:00,
2013-01-01 19:02:00,18.9,9.5,30.14,WNW,296,0.0,1.1,66,0.00,,,0.00,VWS V14.01,2013-01-02 00:02:00,
2013-01-01 19:04:00,19.2,9.9,30.14,NW,325,0.0,0.0,67,0.00,,,0.00,VWS V14.01,2013-01-02 00:04:00,
2013-01-01 19:05:00,19.2,9.5,30.14,NW,325,0.0,0.0,65,0.00,,,0.00,VWS V14.01,2013-01-02 00:05:00,
2013-01-01 19:07:00,19.5,10.3,30.14,NW,325,0.0,0.0,67,0.00,,,0.00,VWS V14.01,2013-01-02 00:07:00,
2013-01-01 19:10:00,19.8,10.3,30.14,NNW,340,0.0,0.0,66,0.00,,,0.00,VWS V14.01,2013-01-02 00:10:00,
2013-01-01 19:11:00,19.7,10.2,30.14,NNW,340,0.0,0.0,66,0.00,,,0.00,VWS V14.01,2013-01-02 00:11:00,
2013-01-01 19:13:00,20.5,11.0,30.14,NNW,340,0.0,0.0,66,0.00,,,0.00,VWS V14.01,2013-01-02 00:13:00,
2013-01-01 19:16:00,20.8,10.8,30.14,NNW,340,0.0,0.0,65,0.00,,,0.00,VWS V14.01,2013-01-02 00:16:00,
2013-01-01 19:17:00,21.0,10.8,30.14,NNW,340,0.0,0.0,64,0.00,,,0.00,VWS V14.01,2013-01-02 00:17:00,
2013-01-01 19:18:00,21.2,11.0,30.14,NNW,340,0.0,0.0,64,0.00,,,0.00,VWS V14.01,2013-01-02 00:18:00,
2013-01-01 19:20:00,19.3,9.1,30.14,NNW,340,0.0,0.0,64,0.00,,,0.00,VWS V14.01,2013-01-02 00:20:00,
2013-01-01 19:22:00,19.4,9.8,30.14,NNW,340,0.0,0.0,66,0.00,,,0.00,VWS V14.01,2013-01-02 00:22:00,
2013-01-01 19:23:00,19.8,10.6,30.14,NNW,340,0.0,0.0,67,0.00,,,0.00,VWS V14.01,2013-01-02 00:23:00,
2013-01-01 19:24:00,20.2,11.7,30.14,NNW,340,0.0,0.0,69,0.00,,,0.00,VWS V14.01,2013-01-02 00:24:00,
2013-01-01 19:25:00,20.1,11.0,30.13,NNW,340,0.0,0.0,67,0.00,,,0.00,VWS V14.01,2013-01-02 00:25:00,
2013-01-01 19:28:00,21.0,11.3,30.14,NE,41,0.0,0.0,66,0.00,,,0.00,VWS V14.01,2013-01-02 00:28:00,
2013-01-01 19:29:00,19.8,10.6,30.13,NW,309,0.0,0.0,67,0.00,,,0.00,VWS V14.01,2013-01-02 00:29:00,
2013-01-01 19:30:00,19.8,10.6,30.13,NW,309,0.0,0.0,67,0.00,,,0.00,VWS V14.01,2013-01-02 00:30:00,
2013-01-01 19:31:00,20.7,11.5,30.14,NW,309,0.0,0.0,67,0.00,,,0.00,VWS V14.01,2013-01-02 00:31:00,
2013-01-01 19:34:00,21.8,11.8,30.14,WNW,300,2.5,2.5,65,0.00,,,0.00,VWS V14.01,2013-01-02 00:34:00,
2013-01-01 19:35:00,23.0,12.8,30.14,NW,306,8.3,8.3,64,0.00,,,0.00,VWS V14.01,2013-01-02 00:35:00,
2013-01-01 19:39:00,21.1,10.4,30.13,WSW,247,4.0,5.2,63,0.00,,,0.00,VWS V14.01,2013-01-02 00:39:00,
2013-01-01 19:40:00,21.1,10.5,30.13,WSW,251,3.2,4.0,63,0.00,,,0.00,VWS V14.01,2013-01-02 00:40:00,
2013-01-01 19:41:00,21.0,10.3,30.13,WSW,251,3.0,3.2,63,0.00,,,0.00,VWS V14.01,2013-01-02 00:41:00,
2013-01-01 19:44:00,21.1,10.5,30.14,WSW,251,0.0,2.2,63,0.00,,,0.00,VWS V14.01,2013-01-02 00:44:00,
2013-01-01 19:45:00,21.3,10.6,30.13,WSW,251,0.0,0.0,63,0.00,,,0.00,VWS V14.01,2013-01-02 00:45:00,
2013-01-01 19:46:00,21.2,10.5,30.13,WSW,251,0.0,0.0,63,0.00,,,0.00,VWS V14.01,2013-01-02 00:46:00,
2013-01-01 19:47:00,20.9,10.2,30.13,WSW,251,0.0,0.0,63,0.00,,,0.00,VWS V14.01,2013-01-02 00:47:00,
2013-01-01 19:49:00,20.7,10.6,30.13,WSW,251,0.0,0.0,64,0.00,,,0.00,VWS V14.01,2013-01-02 00:49:00,
2013-01-01 19:51:00,20.8,10.6,30.13,WSW,251,0.0,0.0,64,0.00,,,0.00,VWS V14.01,2013-01-02 00:51:00,
2013-01-01 19:52:00,20.5,10.3,30.14,WNW,282,2.0,2.0,64,0.00,,,0.00,VWS V14.01,2013-01-02 00:52:00,
2013-01-01 19:54:00,20.6,10.6,30.14,WNW,302,1.6,2.3,64,0.00,,,0.00,VWS V14.01,2013-01-02 00:54:00,
2013-01-01 19:55:00,20.9,10.9,30.13,NW,317,2.7,2.7,65,0.00,,,0.00,VWS V14.01,2013-01-02 00:55:00,
2013-01-01 19:56:00,20.6,10.6,30.14,NW,324,2.2,2.7,65,0.00,,,0.00,VWS V14.01,2013-01-02 00:56:00,
2013-01-01 19:58:00,20.7,11.0,30.14,WNW,302,2.3,2.3,66,0.00,,,0.00,VWS V14.01,2013-01-02 00:58:00,
2013-01-01 20:00:00,20.8,11.3,30.14,WNW,301,2.3,2.3,66,0.00,,,0.00,VWS V14.01,2013-01-02 01:00:00,
2013-01-01 20:01:00,20.5,11.1,30.14,WNW,301,2.0,2.0,66,0.00,,,0.00,VWS V14.01,2013-01-02 01:01:00,
2013-01-01 20:03:00,20.9,11.5,30.14,WNW,287,1.5,2.0,67,0.00,,,0.00,VWS V14.01,2013-01-02 01:03:00,
2013-01-01 20:06:00,19.7,10.8,30.14,WSW,254,2.7,2.7,68,0.00,,,0.00,VWS V14.01,2013-01-02 01:06:00,
2013-01-01 20:08:00,20.3,11.5,30.14,WSW,254,3.2,3.2,68,0.00,,,0.00,VWS V14.01,2013-01-02 01:08:00,
2013-01-01 20:11:00,20.9,11.6,30.14,WSW,237,3.4,3.7,67,0.00,,,0.00,VWS V14.01,2013-01-02 01:11:00,
2013-01-01 20:14:00,21.2,11.2,30.14,WSW,250,1.8,2.5,65,0.00,,,0.00,VWS V14.01,2013-01-02 01:14:00,
2013-01-01 20:16:00,20.8,10.9,30.14,SW,236,2.5,2.5,65,0.00,,,0.00,VWS V14.01,2013-01-02 01:16:00,
2013-01-01 20:17:00,21.0,11.2,30.14,SW,236,3.0,3.0,65,0.00,,,0.00,VWS V14.01,2013-01-02 01:17:00,
2013-01-01 20:20:00,20.6,10.8,30.16,SW,233,3.9,4.5,65,0.00,,,0.00,VWS V14.01,2013-01-02 01:20:00,
2013-01-01 20:21:00,20.4,10.8,30.14,SW,230,3.0,3.9,66,0.00,,,0.00,VWS V14.01,2013-01-02 01:21:00,
2013-01-01 20:22:00,20.7,11.2,30.14,SW,230,2.2,2.8,66,0.00,,,0.00,VWS V14.01,2013-01-02 01:22:00,
2013-01-01 20:26:00,21.4,11.2,30.14,WSW,251,3.4,3.5,64,0.00,,,0.00,VWS V14.01,2013-01-02 01:26:00,
2013-01-01 20:27:00,21.3,10.9,30.19,WSW,251,3.2,3.4,64,0.00,,,0.00,VWS V14.01,2013-01-02 01:27:00,
2013-01-01 20:28:00,21.1,10.8,30.14,WSW,251,2.8,3.2,64,0.00,,,0.00,VWS V14.01,2013-01-02 01:28:00,
2013-01-01 20:31:00,19.9,10.8,30.14,NW,304,0.0,0.0,67,0.00,,,0.00,VWS V14.01,2013-01-02 01:31:00,
2013-01-01 20:32:00,19.9,11.1,30.14,NW,304,0.0,0.0,68,0.00,,,0.00,VWS V14.01,2013-01-02 01:32:00,
2013-01-01 20:33:00,20.2,11.6,30.14,NW,323,2.2,2.2,69,0.00,,,0.00,VWS V14.01,2013-01-02 01:33:00,
2013-01-01 20:34:00,20.3,11.9,30.14,WNW,299,2.0,2.3,69,0.00,,,0.00,VWS V14.01,2013-01-02 01:34:00,
2013-01-01 20:37:00,20.8,12.2,30.14,WNW,282,3.5,3.5,69,0.00,,,0.00,VWS V14.01,2013-01-02 01:37:00,
2013-01-01 20:38:00,20.6,12.0,30.14,WNW,283,3.7,3.7,69,0.00,,,0.00,VWS V14.01,2013-01-02 01:38:00,
2013-01-01 20:39:00,20.9,8.6,30.14,West,277,3.9,3.9,58,0.00,,,0.00,VWS V14.01,2013-01-02 01:39:00,
2013-01-01 20:41:00,21.1,12.0,30.14,West,277,2.8,3.5,67,0.00,,,0.00,VWS V14.01,2013-01-02 01:41:00,
2013-01-01 20:43:00,21.1,11.8,30.14,West,276,2.8,3.2,67,0.00,,,0.00,VWS V14.01,2013-01-02 01:43:00,
2013-01-01 20:44:00,20.8,11.6,30.15,West,276,3.0,3.0,67,0.00,,,0.00,VWS V14.01,2013-01-02 01:44:00,
2013-01-01 20:46:00,19.6,10.9,30.15,West,276,0.0,3.2,68,0.00,,,0.00,VWS V14.01,2013-01-02 01:46:00,
2013-01-01 20:48:00,20.1,12.0,30.14,West,276,0.0,0.0,71,0.00,,,0.00,VWS V14.01,2013-01-02 01:48:00,
2013-01-01 20:49:00,20.2,12.2,30.14,West,276,2.0,2.0,71,0.00,,,0.00,VWS V14.01,2013-01-02 01:49:00,
2013-01-01 20:51:00,20.4,12.6,30.14,West,276,2.7,2.7,72,0.00,,,0.00,VWS V14.01,2013-01-02 01:51:00,
2013-01-01 20:53:00,20.6,12.9,30.15,West,276,3.4,3.4,72,0.00,,,0.00,VWS V14.01,2013-01-02 01:53:00,
2013-01-01 20:54:00,20.8,12.9,30.14,West,269,3.9,3.9,71,0.00,,,0.00,VWS V14.01,2013-01-02 01:54:00,
2013-01-01 20:55:00,21.2,13.2,30.14,West,265,3.9,3.9,71,0.00,,,0.00,VWS V14.01,2013-01-02 01:55:00,
2013-01-01 20:56:00,21.4,13.2,30.15,West,269,4.0,4.0,70,0.00,,,0.00,VWS V14.01,2013-01-02 01:56:00,
2013-01-01 20:58:00,21.6,13.4,30.15,West,270,4.5,4.7,70,0.00,,,0.00,VWS V14.01,2013-01-02 01:58:00,
2013-01-01 21:00:00,21.8,13.2,30.15,West,271,4.9,4.9,69,0.00,,,0.00,VWS V14.01,2013-01-02 02:00:00,
2013-01-01 21:02:00,21.9,13.1,30.15,West,271,4.9,4.9,68,0.00,,,0.00,VWS V14.01,2013-01-02 02:02:00,
2013-01-01 21:03:00,22.0,13.1,30.14,West,277,4.2,4.9,68,0.00,,,0.00,VWS V14.01,2013-01-02 02:03:00,
2013-01-01 21:05:00,21.6,12.9,30.14,West,272,3.5,3.5,69,0.00,,,0.00,VWS V14.01,2013-01-02 02:05:00,
2013-01-01 21:07:00,21.6,13.0,30.14,West,272,3.7,3.7,69,0.00,,,0.00,VWS V14.01,2013-01-02 02:07:00,
2013-01-01 21:08:00,21.6,13.1,30.14,West,272,3.7,3.7,69,0.00,,,0.00,VWS V14.01,2013-01-02 02:08:00,
2013-01-01 21:10:00,21.5,13.2,30.14,West,274,2.8,3.9,70,0.00,,,0.00,VWS V14.01,2013-01-02 02:10:00,
2013-01-01 21:11:00,21.8,13.4,30.15,West,275,3.9,3.9,70,0.00,,,0.00,VWS V14.01,2013-01-02 02:11:00,
2013-01-01 21:14:00,22.1,13.5,30.14,West,270,4.7,4.7,69,0.00,,,0.00,VWS V14.01,2013-01-02 02:14:00,
2013-01-01 21:16:00,22.6,13.7,30.14,West,270,5.2,5.6,68,0.00,,,0.00,VWS V14.01,2013-01-02 02:16:00,
2013-01-01 21:17:00,22.3,12.9,30.14,WNW,283,5.4,5.4,67,0.00,,,0.00,VWS V14.01,2013-01-02 02:17:00,
2013-01-01 21:20:00,22.0,12.7,30.13,West,281,5.7,5.7,67,0.00,,,0.00,VWS V14.01,2013-01-02 02:20:00,
2013-01-01 21:22:00,22.4,13.1,30.13,WNW,284,6.4,6.4,67,0.00,,,0.00,VWS V14.01,2013-01-02 02:22:00,
2013-01-01 21:23:00,22.6,13.3,30.13,West,276,7.3,7.3,67,0.00,,,0.00,VWS V14.01,2013-01-02 02:23:00,
2013-01-01 21:27:00,23.3,13.5,30.14,WNW,290,9.5,9.5,66,0.00,,,0.00,VWS V14.01,2013-01-02 02:27:00,
2013-01-01 21:28:00,23.1,13.0,30.15,WNW,295,7.5,9.5,65,0.00,,,0.00,VWS V14.01,2013-01-02 02:28:00,
2013-01-01 21:29:00,22.8,12.8,30.13,NW,305,7.6,8.5,65,0.00,,,0.00,VWS V14.01,2013-01-02 02:29:00,
2013-01-01 21:32:00,22.9,13.2,30.13,WNW,292,7.1,7.1,66,0.00,,,0.00,VWS V14.01,2013-01-02 02:32:00,
2013-01-01 21:33:00,22.8,13.3,30.13,WNW,293,6.4,7.1,66,0.00,,,0.00,VWS V14.01,2013-01-02 02:33:00,
2013-01-01 21:34:00,23.0,13.5,30.13,WNW,292,8.0,8.0,66,0.00,,,0.00,VWS V14.01,2013-01-02 02:34:00,
2013-01-01 21:36:00,22.7,13.5,30.13,WNW,287,5.4,6.8,67,0.00,,,0.00,VWS V14.01,2013-01-02 02:36:00,
2013-01-01 21:37:00,22.4,13.4,30.13,WNW,290,4.5,5.4,68,0.00,,,0.00,VWS V14.01,2013-01-02 02:37:00,
2013-01-01 21:39:00,22.7,13.7,30.14,WNW,285,5.6,5.6,68,0.00,,,0.00,VWS V14.01,2013-01-02 02:39:00,
2013-01-01 21:40:00,22.4,13.7,30.14,West,278,4.7,4.7,69,0.00,,,0.00,VWS V14.01,2013-01-02 02:40:00,
2013-01-01 21:41:00,22.7,14.0,30.13,West,278,5.7,5.7,69,0.00,,,0.00,VWS V14.01,2013-01-02 02:41:00,
2013-01-01 21:44:00,22.3,14.0,30.14,West,268,5.6,5.6,70,0.00,,,0.00,VWS V14.01,2013-01-02 02:44:00,
2013-01-01 21:45:00,22.3,14.0,30.14,West,268,5.6,5.6,70,0.00,,,0.00,VWS V14.01,2013-01-02 02:45:00,
2013-01-01 21:46:00,22.3,14.0,30.14,West,272,5.2,5.4,70,0.00,,,0.00,VWS V14.01,2013-01-02 02:46:00,
2013-01-01 21:50:00,22.4,14.0,30.13,West,263,5.2,5.2,70,0.00,,,0.00,VWS V14.01,2013-01-02 02:50:00,
2013-01-01 21:51:00,22.4,14.1,30.14,West,269,5.2,5.6,70,0.00,,,0.00,VWS V14.01,2013-01-02 02:51:00,
2013-01-01 21:52:00,22.3,14.0,30.13,West,271,4.5,5.6,70,0.00,,,0.00,VWS V14.01,2013-01-02 02:52:00,
2013-01-01 21:55:00,22.9,14.4,30.13,WNW,282,9.3,9.3,69,0.00,,,0.00,VWS V14.01,2013-01-02 02:55:00,
2013-01-01 21:57:00,22.5,14.0,30.13,West,268,8.8,8.8,69,0.00,,,0.00,VWS V14.01,2013-01-02 02:57:00,
2013-01-01 22:01:00,22.9,13.8,30.14,WNW,299,11.6,11.6,67,0.00,,,0.00,VWS V14.01,2013-01-02 03:01:00,
2013-01-01 22:02:00,22.0,12.7,30.13,West,279,9.5,11.6,67,0.00,,,0.00,VWS V14.01,2013-01-02 03:02:00,
2013-01-01 22:03:00,22.8,13.4,30.14,NW,309,11.9,11.9,67,0.00,,,0.00,VWS V14.01,2013-01-02 03:03:00,
2013-01-01 22:07:00,22.2,12.8,30.13,NW,320,11.2,12.4,66,0.00,,,0.00,VWS V14.01,2013-01-02 03:07:00,
2013-01-01 22:08:00,22.1,12.6,30.14,WNW,296,9.9,11.2,66,0.00,,,0.00,VWS V14.01,2013-01-02 03:08:00,
2013-01-01 22:09:00,22.3,12.8,30.14,NW,304,10.5,10.5,66,0.00,,,0.00,VWS V14.01,2013-01-02 03:09:00,
2013-01-01 22:11:00,21.1,11.8,30.13,WNW,287,6.9,11.1,66,0.00,,,0.00,VWS V14.01,2013-01-02 03:11:00,
2013-01-01 22:12:00,21.5,12.1,30.14,WNW,293,7.6,11.1,67,0.00,,,0.00,VWS V14.01,2013-01-02 03:12:00,
2013-01-01 22:14:00,22.0,11.2,30.13,WNW,302,9.7,9.7,63,0.00,,,0.00,VWS V14.01,2013-01-02 03:14:00,
2013-01-01 22:16:00,20.9,11.8,30.13,NW,305,7.6,8.0,67,0.00,,,0.00,VWS V14.01,2013-01-02 03:16:00,
2013-01-01 22:18:00,21.9,12.8,30.13,WNW,303,12.4,14.6,67,0.00,,,0.00,VWS V14.01,2013-01-02 03:18:00,
2013-01-01 22:19:00,21.9,12.6,30.13,WNW,297,8.5,8.5,67,0.00,,,0.00,VWS V14.01,2013-01-02 03:19:00,
2013-01-01 22:22:00,21.5,12.1,30.14,NW,304,9.0,10.5,67,0.00,,,0.00,VWS V14.01,2013-01-02 03:22:00,
2013-01-01 22:24:00,21.4,12.0,30.13,WNW,296,9.5,9.5,67,0.00,,,0.00,VWS V14.01,2013-01-02 03:24:00,
2013-01-01 22:25:00,21.3,11.7,30.14,NW,320,10.0,10.0,66,0.00,,,0.00,VWS V14.01,2013-01-02 03:25:00,
2013-01-01 22:26:00,21.5,11.9,30.14,NW,305,9.2,10.0,66,0.00,,,0.00,VWS V14.01,2013-01-02 03:26:00,
2013-01-01 22:29:00,20.8,11.0,30.14,WNW,287,8.5,8.5,65,0.00,,,0.00,VWS V14.01,2013-01-02 03:29:00,
2013-01-01 22:30:00,21.1,11.6,30.14,NW,307,10.2,10.2,66,0.00,,,0.00,VWS V14.01,2013-01-02 03:30:00,
2013-01-01 22:31:00,20.5,9.8,30.14,WNW,303,8.1,10.2,63,0.00,,,0.00,VWS V14.01,2013-01-02 03:31:00,
2013-01-01 22:32:00,20.4,10.7,30.14,WNW,303,8.1,8.1,65,0.00,,,0.00,VWS V14.01,2013-01-02 03:32:00,
2013-01-01 22:35:00,20.5,11.1,30.14,WNW,291,6.4,8.3,66,0.00,,,0.00,VWS V14.01,2013-01-02 03:35:00,
2013-01-01 22:36:00,20.9,11.6,30.14,NW,305,8.3,8.3,67,0.00,,,0.00,VWS V14.01,2013-01-02 03:36:00,
2013-01-01 22:38:00,21.5,12.2,30.14,WNW,301,7.8,7.8,67,0.00,,,0.00,VWS V14.01,2013-01-02 03:38:00,
2013-01-01 22:41:00,20.0,11.0,30.14,WNW,302,6.9,8.0,67,0.00,,,0.00,VWS V14.01,2013-01-02 03:41:00,
2013-01-01 22:42:00,20.1,11.1,30.13,WNW,301,6.8,6.9,68,0.00,,,0.00,VWS V14.01,2013-01-02 03:42:00,
2013-01-01 22:44:00,19.5,10.6,30.14,WNW,290,6.6,6.9,68,0.00,,,0.00,VWS V14.01,2013-01-02 03:44:00,
2013-01-01 22:45:00,19.8,9.9,30.14,WNW,296,7.6,7.6,65,0.00,,,0.00,VWS V14.01,2013-01-02 03:45:00,
2013-01-01 22:47:00,19.7,10.9,30.14,WNW,289,6.4,6.4,68,0.00,,,0.00,VWS V14.01,2013-01-02 03:47:00,
2013-01-01 22:48:00,19.7,10.9,30.14,WNW,296,6.6,6.8,68,0.00,,,0.00,VWS V14.01,2013-01-02 03:48:00,
2013-01-01 22:49:00,19.8,11.0,30.15,WNW,287,7.1,7.1,68,0.00,,,0.00,VWS V14.01,2013-01-02 03:49:00,
2013-01-01 22:50:00,19.6,10.9,30.15,WNW,289,6.8,7.3,68,0.00,,,0.00,VWS V14.01,2013-01-02 03:50:00,
2013-01-01 22:53:00,19.5,9.8,30.15,WNW,298,8.1,8.1,65,0.00,,,0.00,VWS V14.01,2013-01-02 03:53:00,
2013-01-01 22:54:00,19.8,11.2,30.14,WNW,296,8.0,8.1,69,0.00,,,0.00,VWS V14.01,2013-01-02 03:54:00,
2013-01-01 22:55:00,19.6,10.9,30.14,WNW,298,7.5,7.6,69,0.00,,,0.00,VWS V14.01,2013-01-02 03:55:00,
2013-01-01 22:56:00,19.1,10.4,30.14,WNW,287,6.9,7.6,69,0.00,,,0.00,VWS V14.01,2013-01-02 03:56:00,
2013-01-01 22:59:00,19.3,11.0,30.14,WNW,285,6.4,6.6,69,0.00,,,0.00,VWS V14.01,2013-01-02 03:59:00,
2013-01-01 23:00:00,19.0,10.6,30.14,West,274,6.6,6.6,69,0.00,,,0.00,VWS V14.01,2013-01-02 04:00:00,
2013-01-01 23:01:00,18.6,10.4,30.14,WNW,284,7.1,7.1,70,0.00,,,0.00,VWS V14.01,2013-01-02 04:01:00,
2013-01-01 23:05:00,18.6,10.4,30.15,West,273,6.3,6.3,70,0.00,,,0.00,VWS V14.01,2013-01-02 04:05:00,
2013-01-01 23:06:00,18.1,10.1,30.14,West,281,6.1,6.3,70,0.00,,,0.00,VWS V14.01,2013-01-02 04:06:00,
2013-01-01 23:07:00,18.6,10.9,30.15,West,270,6.9,6.9,71,0.00,,,0.00,VWS V14.01,2013-01-02 04:07:00,
2013-01-01 23:08:00,18.5,10.7,30.15,West,272,6.3,6.9,71,0.00,,,0.00,VWS V14.01,2013-01-02 04:08:00,
2013-01-01 23:11:00,18.7,11.4,30.14,West,279,6.3,6.3,73,0.00,,,0.00,VWS V14.01,2013-01-02 04:11:00,
2013-01-01 23:12:00,18.3,11.1,30.14,West,279,6.1,6.1,73,0.00,,,0.00,VWS V14.01,2013-01-02 04:12:00,
2013-01-01 23:14:00,18.0,10.7,30.15,West,278,6.4,6.4,73,0.00,,,0.00,VWS V14.01,2013-01-02 04:14:00,
2013-01-01 23:17:00,17.5,10.4,30.15,West,276,6.4,6.6,73,0.00,,,0.00,VWS V14.01,2013-01-02 04:17:00,
2013-01-01 23:18:00,17.2,10.1,30.15,West,275,6.1,6.1,73,0.00,,,0.00,VWS V14.01,2013-01-02 04:18:00,
2013-01-01 23:19:00,17.0,10.1,30.16,West,277,5.6,6.1,74,0.00,,,0.00,VWS V14.01,2013-01-02 04:19:00,
2013-01-01 23:20:00,17.8,10.9,30.16,West,275,6.1,6.1,74,0.00,,,0.00,VWS V14.01,2013-01-02 04:20:00,
2013-01-01 23:22:00,17.5,10.9,30.15,West,279,6.9,6.9,75,0.00,,,0.00,VWS V14.01,2013-01-02 04:22:00,
2013-01-01 23:24:00,17.1,10.3,30.16,WNW,285,6.3,6.4,74,0.00,,,0.00,VWS V14.01,2013-01-02 04:24:00,
2013-01-01 23:26:00,16.9,10.2,30.16,WNW,282,5.9,5.9,74,0.00,,,0.00,VWS V14.01,2013-01-02 04:26:00,
2013-01-01 23:28:00,15.3,8.4,30.16,West,277,4.4,4.4,73,0.00,,,0.00,VWS V14.01,2013-01-02 04:28:00,
2013-01-01 23:29:00,15.2,8.8,30.16,West,280,3.9,4.5,75,0.00,,,0.00,VWS V14.01,2013-01-02 04:29:00,
2013-01-01 23:30:00,14.7,6.7,30.16,WNW,282,3.7,3.9,70,0.00,,,0.00,VWS V14.01,2013-01-02 04:30:00,
2013-01-01 23:32:00,14.8,8.6,30.16,West,269,3.2,3.5,76,0.00,,,0.00,VWS V14.01,2013-01-02 04:32:00,
2013-01-01 23:34:00,16.6,11.2,30.16,West,274,5.1,5.1,79,0.00,,,0.00,VWS V14.01,2013-01-02 04:34:00,
2013-01-01 23:35:00,17.1,11.9,30.17,West,274,5.4,5.4,79,0.00,,,0.00,VWS V14.01,2013-01-02 04:35:00,
2013-01-01 23:36:00,17.1,11.9,30.17,West,274,5.4,5.4,79,0.00,,,0.00,VWS V14.01,2013-01-02 04:36:00,
2013-01-01 23:40:00,17.4,11.8,30.17,West,273,5.6,5.7,78,0.00,,,0.00,VWS V14.01,2013-01-02 04:40:00,
2013-01-01 23:41:00,17.5,11.0,30.17,West,273,5.4,5.6,75,0.00,,,0.00,VWS V14.01,2013-01-02 04:41:00,
2013-01-01 23:45:00,17.4,11.7,30.17,West,277,5.6,5.9,78,0.00,,,0.00,VWS V14.01,2013-01-02 04:45:00,
2013-01-01 23:46:00,17.4,11.8,30.17,West,279,4.9,5.1,78,0.00,,,0.00,VWS V14.01,2013-01-02 04:46:00,
2013-01-01 23:48:00,17.2,11.5,30.17,WNW,284,4.4,5.2,78,0.00,,,0.00,VWS V14.01,2013-01-02 04:48:00,
2013-01-01 23:50:00,17.4,11.2,30.17,West,274,5.1,5.1,76,0.00,,,0.00,VWS V14.01,2013-01-02 04:50:00,
2013-01-01 23:52:00,17.5,12.0,30.17,West,274,5.2,5.2,78,0.00,,,0.00,VWS V14.01,2013-01-02 04:52:00,
2013-01-01 23:55:00,17.3,11.7,30.17,West,267,5.9,5.9,78,0.00,,,0.00,VWS V14.01,2013-01-02 04:55:00,
2013-01-01 23:57:00,17.6,12.1,30.17,West,270,5.7,6.3,79,0.00,,,0.00,VWS V14.01,2013-01-02 04:57:00,
2013-01-01 23:58:00,17.4,11.9,30.16,West,270,5.6,5.9,78,0.00,,,0.00,VWS V14.01,2013-01-02 04:58:00,
2013-01-01 23:59:00,17.1,11.5,30.16,West,270,5.6,5.6,78,0.00,,,0.00,VWS V14.01,2013-01-02 04:59:00,